NOAA Web Site Link Tides and Currents Home Page Transparent placeholder image

PORTS® Data Listing: 8638610 Sewells Point, VA

CO-OPS RAW PORTS DATA

************************      PRELIMINARY DATA      ************************** 

     THIS RAW DATA HAS NOT BEEN SUBJECT TO THE NATIONAL OCEAN SERVICE'S        
     QUALITY CONTROL OR QUALITY ASSURANCE PROCEDURES AND DOES NOT MEET         
     THE CRITERIA AND STANDARDS OF OFFICIAL NATIONAL OCEAN SERVICE             
     DATA.  IT IS RELEASED FOR LIMITED PUBLIC USE AS PRELIMINARY DATA TO       
     BE USED ONLY WITH APPROPRIATE CAUTION.                                    

************************      PRELIMINARY DATA      ************************** 


       CD   -   Calendar date
       T    -   Time
       TZ   -   Timezone
       PW   -   Predicted water level (feet above MLLW)
       OW   -   Observed water level (feet above MLLW)
       WS   -   Wind speed (knots)
       WD   -   Wind direction (degrees true)
       WG   -   Wind gust (knots)
       AT   -   Air temperature (degrees farenheit)
       WT   -   Water temperature (degrees farenheit)
       AP   -   Air pressure (millibars)
       SA   -   Salinty (PSU - Practical Salinity Units)
       SG   -   Specific gravity
       RH   -   Relative humidity
       AG   -   Air gap (feet)
       VI   -   Visibility (nautical miles)

       ** NOTE **
       A variable that has its data fields filled with "9"s, indicates that
       data was not collected for that sample period.
       **********


STATION NAME: Sewells Point (8638610)
****************************************************************************************************
    CD       T    TZ    PW     OW    WS   WD   WG    AT    WT    AP    SA    SG     RH    AG   VI
****************************************************************************************************
2019/07/16 01:48 EDT    0.63   1.14 -999 -999 -999 -99.9  84.7 1018.3 16.1  1.009 -99.9 -99.99 -9.99
2019/07/16 01:54 EDT    0.58   1.10 -999 -999 -999 -99.9  84.7 1018.2 16.1  1.009 -99.9 -99.99 -9.99
2019/07/16 02:00 EDT    0.53   1.04 -999 -999 -999 -99.9  84.6 1018.2 16.1  1.009 -99.9 -99.99 -9.99
2019/07/16 02:06 EDT    0.47   0.98 -999 -999 -999 -99.9  84.6 1018.2 16.1  1.009 -99.9 -99.99 -9.99
2019/07/16 02:12 EDT    0.43   0.94 -999 -999 -999 -99.9  84.7 1018.2 16.1  1.009 -99.9 -99.99 -9.99
2019/07/16 02:18 EDT    0.38   0.88 -999 -999 -999 -99.9  84.6 1018.1 16.1  1.009 -99.9 -99.99 -9.99
2019/07/16 02:24 EDT    0.34   0.85 -999 -999 -999 -99.9  84.7 1018.1 16.1  1.009 -99.9 -99.99 -9.99
2019/07/16 02:30 EDT    0.30   0.81 -999 -999 -999 -99.9  84.6 1018.0 16.1  1.009 -99.9 -99.99 -9.99
2019/07/16 02:36 EDT    0.26   0.77 -999 -999 -999 -99.9  84.7 1018.1 16.1  1.009 -99.9 -99.99 -9.99
2019/07/16 02:42 EDT    0.23   0.74 -999 -999 -999 -99.9  84.6 1017.9 16.1  1.009 -99.9 -99.99 -9.99
2019/07/16 02:48 EDT    0.20   0.70 -999 -999 -999 -99.9  84.6 1017.9 16.1  1.009 -99.9 -99.99 -9.99
2019/07/16 02:54 EDT    0.17   0.68 -999 -999 -999 -99.9  84.6 1017.8 16.1  1.009 -99.9 -99.99 -9.99
2019/07/16 03:00 EDT    0.15   0.65 -999 -999 -999 -99.9  84.6 1017.7 16.1  1.009 -99.9 -99.99 -9.99
2019/07/16 03:06 EDT    0.13   0.62 -999 -999 -999 -99.9  84.6 1017.6 16.1  1.009 -99.9 -99.99 -9.99
2019/07/16 03:12 EDT    0.11   0.61 -999 -999 -999 -99.9  84.6 1017.5 16.1  1.009 -99.9 -99.99 -9.99
2019/07/16 03:18 EDT    0.10   0.59 -999 -999 -999 -99.9  84.6 1017.5 16.1  1.009 -99.9 -99.99 -9.99
2019/07/16 03:24 EDT    0.09   0.58 -999 -999 -999 -99.9  84.6 1017.5 16.1  1.009 -99.9 -99.99 -9.99
2019/07/16 03:30 EDT    0.08   0.55 -999 -999 -999 -99.9  84.6 1017.6 16.1  1.009 -99.9 -99.99 -9.99
2019/07/16 03:36 EDT    0.08   0.56 -999 -999 -999 -99.9  84.6 1017.5 16.1  1.009 -99.9 -99.99 -9.99
2019/07/16 03:42 EDT    0.08   0.55 -999 -999 -999 -99.9  84.6 1017.5 16.1  1.009 -99.9 -99.99 -9.99
2019/07/16 03:48 EDT    0.08   0.51 -999 -999 -999 -99.9  84.6 1017.5 16.2  1.009 -99.9 -99.99 -9.99
2019/07/16 03:54 EDT    0.09   0.55 -999 -999 -999 -99.9  84.4 1017.6 16.1  1.009 -99.9 -99.99 -9.99
2019/07/16 04:00 EDT    0.10   0.56 -999 -999 -999 -99.9  84.6 1017.6 16.1  1.009 -99.9 -99.99 -9.99
2019/07/16 04:06 EDT    0.12   0.56 -999 -999 -999 -99.9  84.6 1017.7 16.1  1.009 -99.9 -99.99 -9.99
2019/07/16 04:12 EDT    0.13   0.60 -999 -999 -999 -99.9  84.4 1017.8 16.1  1.009 -99.9 -99.99 -9.99
2019/07/16 04:18 EDT    0.15   0.59 -999 -999 -999 -99.9  84.4 1017.8 16.1  1.009 -99.9 -99.99 -9.99
2019/07/16 04:24 EDT    0.18   0.63 -999 -999 -999 -99.9  84.4 1017.8 16.1  1.009 -99.9 -99.99 -9.99
2019/07/16 04:30 EDT    0.20   0.64 -999 -999 -999 -99.9 -99.9 1017.8 -9.9 -9.999 -99.9 -99.99 -9.99
2019/07/16 04:36 EDT    0.23   0.69 -999 -999 -999 -99.9 -99.9 1017.9 -9.9 -9.999 -99.9 -99.99 -9.99
2019/07/16 04:42 EDT    0.27   0.70 -999 -999 -999 -99.9 -99.9 1017.9 -9.9 -9.999 -99.9 -99.99 -9.99
2019/07/16 04:48 EDT    0.30   0.75 -999 -999 -999 -99.9 -99.9 1018.0 -9.9 -9.999 -99.9 -99.99 -9.99
2019/07/16 04:54 EDT    0.34   0.77 -999 -999 -999 -99.9 -99.9 1018.0 -9.9 -9.999 -99.9 -99.99 -9.99
2019/07/16 05:00 EDT    0.38   0.75 -999 -999 -999 -99.9 -99.9 1018.0 -9.9 -9.999 -99.9 -99.99 -9.99
2019/07/16 05:06 EDT    0.42   0.83 -999 -999 -999 -99.9 -99.9 1018.0 -9.9 -9.999 -99.9 -99.99 -9.99
2019/07/16 05:12 EDT    0.47   0.86 -999 -999 -999 -99.9 -99.9 1018.1 -9.9 -9.999 -99.9 -99.99 -9.99
2019/07/16 05:18 EDT    0.51   0.92 -999 -999 -999 -99.9 -99.9 1018.2 -9.9 -9.999 -99.9 -99.99 -9.99
2019/07/16 05:24 EDT    0.56   0.94 -999 -999 -999 -99.9 -99.9 1018.2 -9.9 -9.999 -99.9 -99.99 -9.99
2019/07/16 05:30 EDT    0.61   0.99 -999 -999 -999 -99.9 -99.9 1018.3 -9.9 -9.999 -99.9 -99.99 -9.99
2019/07/16 05:36 EDT    0.66   1.02 -999 -999 -999 -99.9 -99.9 1018.4 -9.9 -9.999 -99.9 -99.99 -9.99
2019/07/16 05:42 EDT    0.72   1.08 -999 -999 -999 -99.9 -99.9 1018.5 -9.9 -9.999 -99.9 -99.99 -9.99
2019/07/16 05:48 EDT    0.77   1.14 -999 -999 -999 -99.9 -99.9 1018.6 -9.9 -9.999 -99.9 -99.99 -9.99
2019/07/16 05:54 EDT    0.83   1.19 -999 -999 -999 -99.9 -99.9 1018.6 -9.9 -9.999 -99.9 -99.99 -9.99
2019/07/16 06:00 EDT    0.88   1.25 -999 -999 -999 -99.9 -99.9 1018.7 -9.9 -9.999 -99.9 -99.99 -9.99
2019/07/16 06:06 EDT    0.94   1.30 -999 -999 -999 -99.9 -99.9 1018.7 -9.9 -9.999 -99.9 -99.99 -9.99
2019/07/16 06:12 EDT    1.00   1.36 -999 -999 -999 -99.9 -99.9 1018.7 -9.9 -9.999 -99.9 -99.99 -9.99
2019/07/16 06:18 EDT    1.06   1.42 -999 -999 -999 -99.9 -99.9 1018.8 -9.9 -9.999 -99.9 -99.99 -9.99
2019/07/16 06:24 EDT    1.12   1.49 -999 -999 -999 -99.9 -99.9 1018.9 -9.9 -9.999 -99.9 -99.99 -9.99
2019/07/16 06:30 EDT    1.18   1.55 -999 -999 -999 -99.9 -99.9 1018.9 -9.9 -9.999 -99.9 -99.99 -9.99
2019/07/16 06:36 EDT    1.24   1.61 -999 -999 -999 -99.9 -99.9 1019.0 -9.9 -9.999 -99.9 -99.99 -9.99
2019/07/16 06:42 EDT    1.30   1.67 -999 -999 -999 -99.9 -99.9 1019.0 -9.9 -9.999 -99.9 -99.99 -9.99
2019/07/16 06:48 EDT    1.35   1.74 -999 -999 -999 -99.9 -99.9 1019.1 -9.9 -9.999 -99.9 -99.99 -9.99
2019/07/16 06:54 EDT    1.41   1.80 -999 -999 -999 -99.9 -99.9 1019.2 -9.9 -9.999 -99.9 -99.99 -9.99
2019/07/16 07:00 EDT    1.47   1.87 -999 -999 -999 -99.9 -99.9 1019.2 -9.9 -9.999 -99.9 -99.99 -9.99
2019/07/16 07:06 EDT    1.53   1.94 -999 -999 -999 -99.9  84.4 1019.2 16.1  1.009 -99.9 -99.99 -9.99
2019/07/16 07:12 EDT    1.58   2.00 -999 -999 -999 -99.9 -99.9 1019.3 -9.9 -9.999 -99.9 -99.99 -9.99
2019/07/16 07:18 EDT    1.64   2.07 -999 -999 -999 -99.9 -99.9 1019.3 -9.9 -9.999 -99.9 -99.99 -9.99
2019/07/16 07:24 EDT    1.69   2.14 -999 -999 -999 -99.9 -99.9 1019.3 -9.9 -9.999 -99.9 -99.99 -9.99
2019/07/16 07:30 EDT    1.74   2.21 -999 -999 -999 -99.9  83.8 1019.3 15.9  1.009 -99.9 -99.99 -9.99
2019/07/16 07:36 EDT    1.79   2.27 -999 -999 -999 -99.9  83.8 1019.2 15.9  1.009 -99.9 -99.99 -9.99
2019/07/16 07:42 EDT    1.84   2.31 -999 -999 -999 -99.9  84.2 1019.3 15.9  1.009 -99.9 -99.99 -9.99
2019/07/16 07:48 EDT    1.89   2.38 -999 -999 -999 -99.9  84.0 1019.3 16.0  1.009 -99.9 -99.99 -9.99
2019/07/16 07:54 EDT    1.94 -99.99 -999 -999 -999 -99.9 -99.9 -999.9 -9.9 -9.999 -99.9 -99.99 -9.99
2019/07/16 08:00 EDT    1.98 -99.99 -999 -999 -999 -99.9 -99.9 -999.9 -9.9 -9.999 -99.9 -99.99 -9.99
2019/07/16 08:06 EDT    2.02   2.53 -999 -999 -999 -99.9  84.0 1019.3 16.0  1.009 -99.9 -99.99 -9.99
2019/07/16 08:12 EDT    2.06   2.57 -999 -999 -999 -99.9  84.0 1019.2 16.0  1.009 -99.9 -99.99 -9.99
2019/07/16 08:18 EDT    2.10   2.57 -999 -999 -999 -99.9  83.8 1019.3 15.9  1.009 -99.9 -99.99 -9.99
2019/07/16 08:24 EDT    2.13   2.65 -999 -999 -999 -99.9  83.8 1019.3 15.9  1.009 -99.9 -99.99 -9.99
2019/07/16 08:30 EDT    2.16   2.65 -999 -999 -999 -99.9  83.8 1019.3 15.9  1.009 -99.9 -99.99 -9.99
2019/07/16 08:36 EDT    2.19   2.66 -999 -999 -999 -99.9  83.8 1019.2 15.9  1.009 -99.9 -99.99 -9.99
2019/07/16 08:42 EDT    2.22   2.71 -999 -999 -999 -99.9  84.0 1019.2 15.8  1.009 -99.9 -99.99 -9.99
2019/07/16 08:48 EDT    2.24   2.72 -999 -999 -999 -99.9  84.0 1019.2 15.9  1.009 -99.9 -99.99 -9.99
2019/07/16 08:54 EDT    2.26   2.75 -999 -999 -999 -99.9  84.0 1019.2 15.9  1.009 -99.9 -99.99 -9.99
2019/07/16 09:00 EDT    2.28   2.75 -999 -999 -999 -99.9  83.8 1019.3 15.9  1.009 -99.9 -99.99 -9.99
2019/07/16 09:06 EDT    2.30   2.77 -999 -999 -999 -99.9  83.8 1019.3 15.9  1.009 -99.9 -99.99 -9.99
2019/07/16 09:12 EDT    2.31   2.79 -999 -999 -999 -99.9  84.0 1019.3 15.9  1.009 -99.9 -99.99 -9.99
2019/07/16 09:18 EDT    2.32   2.83 -999 -999 -999 -99.9  84.0 1019.4 15.9  1.009 -99.9 -99.99 -9.99
2019/07/16 09:24 EDT    2.32   2.82 -999 -999 -999 -99.9  84.2 1019.4 15.9  1.009 -99.9 -99.99 -9.99
2019/07/16 09:30 EDT    2.33   2.84 -999 -999 -999 -99.9  84.2 1019.4 15.9  1.009 -99.9 -99.99 -9.99
2019/07/16 09:36 EDT    2.33   2.82 -999 -999 -999 -99.9  84.2 1019.4 16.0  1.009 -99.9 -99.99 -9.99
2019/07/16 09:42 EDT    2.33   2.84 -999 -999 -999 -99.9  84.4 1019.3 16.0  1.009 -99.9 -99.99 -9.99
2019/07/16 09:48 EDT    2.32   2.82 -999 -999 -999 -99.9  84.4 1019.3 16.1  1.009 -99.9 -99.99 -9.99
2019/07/16 09:54 EDT    2.31   2.83 -999 -999 -999 -99.9  84.4 1019.3 16.0  1.009 -99.9 -99.99 -9.99
2019/07/16 10:00 EDT    2.30   2.81 -999 -999 -999 -99.9  84.4 1019.2 16.0  1.009 -99.9 -99.99 -9.99
2019/07/16 10:06 EDT    2.29   2.80 -999 -999 -999 -99.9  84.4 1019.2 16.1  1.009 -99.9 -99.99 -9.99
2019/07/16 10:12 EDT    2.27   2.77 -999 -999 -999 -99.9  84.2 1019.3 16.1  1.009 -99.9 -99.99 -9.99
2019/07/16 10:18 EDT    2.25   2.75 -999 -999 -999 -99.9  84.2 1019.3 16.0  1.009 -99.9 -99.99 -9.99
2019/07/16 10:24 EDT    2.23   2.73 -999 -999 -999 -99.9  84.4 1019.3 16.0  1.009 -99.9 -99.99 -9.99
2019/07/16 10:30 EDT    2.21   2.72 -999 -999 -999 -99.9  84.0 1019.3 16.0  1.009 -99.9 -99.99 -9.99
2019/07/16 10:36 EDT    2.18   2.69 -999 -999 -999 -99.9  84.0 1019.2 15.9  1.009 -99.9 -99.99 -9.99
2019/07/16 10:42 EDT    2.15   2.68 -999 -999 -999 -99.9  84.0 1019.2 16.0  1.009 -99.9 -99.99 -9.99
2019/07/16 10:48 EDT    2.12   2.65 -999 -999 -999 -99.9  84.0 1019.3 16.0  1.009 -99.9 -99.99 -9.99
2019/07/16 10:54 EDT    2.08   2.62 -999 -999 -999 -99.9  84.2 1019.2 16.0  1.009 -99.9 -99.99 -9.99
2019/07/16 11:00 EDT    2.04   2.59 -999 -999 -999 -99.9  84.2 1019.3 16.0  1.009 -99.9 -99.99 -9.99
2019/07/16 11:06 EDT    2.00   2.54 -999 -999 -999 -99.9 -99.9 1019.3 -9.9 -9.999 -99.9 -99.99 -9.99
2019/07/16 11:12 EDT    1.96   2.50 -999 -999 -999 -99.9  84.2 1019.3 16.0  1.009 -99.9 -99.99 -9.99
2019/07/16 11:18 EDT    1.92   2.44 -999 -999 -999 -99.9  84.0 1019.3 16.1  1.009 -99.9 -99.99 -9.99
2019/07/16 11:24 EDT    1.87   2.40 -999 -999 -999 -99.9  84.0 1019.3 16.1  1.009 -99.9 -99.99 -9.99
2019/07/16 11:30 EDT    1.82   2.36 -999 -999 -999 -99.9  84.0 1019.3 16.1  1.009 -99.9 -99.99 -9.99
2019/07/16 11:36 EDT    1.77   2.32 -999 -999 -999 -99.9  83.8 1019.3 16.2  1.009 -99.9 -99.99 -9.99
2019/07/16 11:42 EDT    1.72   2.28 -999 -999 -999 -99.9  84.0 1019.3 16.2  1.009 -99.9 -99.99 -9.99
2019/07/16 11:48 EDT    1.67   2.23 -999 -999 -999 -99.9  84.0 1019.3 16.2  1.009 -99.9 -99.99 -9.99
2019/07/16 11:54 EDT    1.62   2.18 -999 -999 -999 -99.9  83.8 1019.4 16.2  1.009 -99.9 -99.99 -9.99
2019/07/16 12:00 EDT    1.56   2.13 -999 -999 -999 -99.9  83.8 1019.4 16.2  1.009 -99.9 -99.99 -9.99
2019/07/16 12:06 EDT    1.51   2.07 -999 -999 -999 -99.9  83.8 1019.3 16.2  1.009 -99.9 -99.99 -9.99
2019/07/16 12:12 EDT    1.45   2.01 -999 -999 -999 -99.9  83.8 1019.3 16.2  1.009 -99.9 -99.99 -9.99
2019/07/16 12:18 EDT    1.39   1.95 -999 -999 -999 -99.9  83.8 1019.3 16.2  1.009 -99.9 -99.99 -9.99
2019/07/16 12:24 EDT    1.33   1.88 -999 -999 -999 -99.9  84.2 1019.3 16.1  1.009 -99.9 -99.99 -9.99
2019/07/16 12:30 EDT    1.27   1.80 -999 -999 -999 -99.9  84.2 1019.3 16.1  1.009 -99.9 -99.99 -9.99
2019/07/16 12:36 EDT    1.22   1.74 -999 -999 -999 -99.9  84.2 1019.3 16.1  1.009 -99.9 -99.99 -9.99
2019/07/16 12:42 EDT    1.16   1.66 -999 -999 -999 -99.9  84.2 1019.2 16.1  1.009 -99.9 -99.99 -9.99
2019/07/16 12:48 EDT    1.10   1.60 -999 -999 -999 -99.9  84.2 1019.1 16.1  1.009 -99.9 -99.99 -9.99
2019/07/16 12:54 EDT    1.04   1.54 -999 -999 -999 -99.9  84.2 1019.1 16.1  1.009 -99.9 -99.99 -9.99
2019/07/16 13:00 EDT    0.98   1.47 -999 -999 -999 -99.9  84.0 1019.0 16.1  1.009 -99.9 -99.99 -9.99
2019/07/16 13:06 EDT    0.92   1.41 -999 -999 -999 -99.9  84.0 1018.9 16.1  1.009 -99.9 -99.99 -9.99
2019/07/16 13:12 EDT    0.86   1.37 -999 -999 -999 -99.9  84.0 1018.7 16.2  1.009 -99.9 -99.99 -9.99
2019/07/16 13:18 EDT    0.81   1.31 -999 -999 -999 -99.9  84.0 1018.8 16.2  1.009 -99.9 -99.99 -9.99
2019/07/16 13:24 EDT    0.75   1.25 -999 -999 -999 -99.9  84.0 1018.6 16.1  1.009 -99.9 -99.99 -9.99
2019/07/16 13:30 EDT    0.70   1.20 -999 -999 -999 -99.9  84.0 1018.6 16.2  1.009 -99.9 -99.99 -9.99
2019/07/16 13:36 EDT    0.65   1.18 -999 -999 -999 -99.9  84.0 1018.6 16.1  1.009 -99.9 -99.99 -9.99
2019/07/16 13:42 EDT    0.59   1.14 -999 -999 -999 -99.9  84.0 1018.7 16.2  1.009 -99.9 -99.99 -9.99
2019/07/16 13:48 EDT    0.55   1.07 -999 -999 -999 -99.9  84.0 1018.7 16.2  1.009 -99.9 -99.99 -9.99
2019/07/16 13:54 EDT    0.50   1.00 -999 -999 -999 -99.9  84.7 1018.8 16.0  1.009 -99.9 -99.99 -9.99
2019/07/16 14:00 EDT    0.45   0.94 -999 -999 -999 -99.9  84.2 1018.8 16.1  1.009 -99.9 -99.99 -9.99
2019/07/16 14:06 EDT    0.41   0.96 -999 -999 -999 -99.9 -99.9 1019.1 -9.9 -9.999 -99.9 -99.99 -9.99
2019/07/16 14:12 EDT    0.37   0.86 -999 -999 -999 -99.9 -99.9 1019.3 -9.9 -9.999 -99.9 -99.99 -9.99
2019/07/16 14:18 EDT    0.33   0.80 -999 -999 -999 -99.9 -99.9 1018.7 -9.9 -9.999 -99.9 -99.99 -9.99
2019/07/16 14:24 EDT    0.29   0.75 -999 -999 -999 -99.9  84.2 1018.1 16.1  1.009 -99.9 -99.99 -9.99
2019/07/16 14:30 EDT    0.26   0.73 -999 -999 -999 -99.9  84.2 1018.2 16.1  1.009 -99.9 -99.99 -9.99
2019/07/16 14:36 EDT    0.22 -99.99 -999 -999 -999 -99.9 -99.9 -999.9 -9.9 -9.999 -99.9 -99.99 -9.99
2019/07/16 14:42 EDT    0.19 -99.99 -999 -999 -999 -99.9 -99.9 -999.9 -9.9 -9.999 -99.9 -99.99 -9.99
2019/07/16 14:48 EDT    0.17 -99.99 -999 -999 -999 -99.9 -99.9 -999.9 -9.9 -9.999 -99.9 -99.99 -9.99
2019/07/16 14:54 EDT    0.15   0.55 -999 -999 -999 -99.9  84.4 1018.3 16.1  1.009 -99.9 -99.99 -9.99
2019/07/16 15:00 EDT    0.13   0.61 -999 -999 -999 -99.9  84.2 1018.3 16.1  1.009 -99.9 -99.99 -9.99
2019/07/16 15:06 EDT    0.11   0.58 -999 -999 -999 -99.9  84.2 1018.1 16.1  1.009 -99.9 -99.99 -9.99
2019/07/16 15:12 EDT    0.10   0.55 -999 -999 -999 -99.9  84.4 1018.1 16.1  1.009 -99.9 -99.99 -9.99
2019/07/16 15:18 EDT    0.09   0.54 -999 -999 -999 -99.9  84.6 1018.1 16.1  1.009 -99.9 -99.99 -9.99
2019/07/16 15:24 EDT    0.08   0.52 -999 -999 -999 -99.9  84.4 1018.1 16.1  1.009 -99.9 -99.99 -9.99
2019/07/16 15:30 EDT    0.07   0.54 -999 -999 -999 -99.9  84.4 1018.0 16.1  1.009 -99.9 -99.99 -9.99
2019/07/16 15:36 EDT    0.07   0.55 -999 -999 -999 -99.9  84.4 1018.0 16.1  1.009 -99.9 -99.99 -9.99
2019/07/16 15:42 EDT    0.08   0.55 -999 -999 -999 -99.9  84.4 1018.1 16.1  1.009 -99.9 -99.99 -9.99
2019/07/16 15:48 EDT    0.08   0.53 -999 -999 -999 -99.9  84.4 1018.4 16.1  1.009 -99.9 -99.99 -9.99
2019/07/16 15:54 EDT    0.09   0.55 -999 -999 -999 -99.9  84.6 1018.3 16.1  1.009 -99.9 -99.99 -9.99
2019/07/16 16:00 EDT    0.11   0.55 -999 -999 -999 -99.9  84.6 1018.2 16.1  1.009 -99.9 -99.99 -9.99
2019/07/16 16:06 EDT    0.12   0.56 -999 -999 -999 -99.9  84.7 1018.2 16.1  1.009 -99.9 -99.99 -9.99
2019/07/16 16:12 EDT    0.14   0.59 -999 -999 -999 -99.9  84.7 1018.0 16.1  1.009 -99.9 -99.99 -9.99
2019/07/16 16:18 EDT    0.16   0.61 -999 -999 -999 -99.9  84.7 1017.9 16.1  1.009 -99.9 -99.99 -9.99
2019/07/16 16:24 EDT    0.19   0.64 -999 -999 -999 -99.9  84.7 1017.7 16.1  1.009 -99.9 -99.99 -9.99
2019/07/16 16:30 EDT    0.22   0.66 -999 -999 -999 -99.9  84.7 1017.6 16.1  1.009 -99.9 -99.99 -9.99
2019/07/16 16:36 EDT    0.25   0.69 -999 -999 -999 -99.9 -99.9 1017.3 -9.9 -9.999 -99.9 -99.99 -9.99
2019/07/16 16:42 EDT    0.29   0.69 -999 -999 -999 -99.9 -99.9 1017.3 -9.9 -9.999 -99.9 -99.99 -9.99
2019/07/16 16:48 EDT    0.32   0.71 -999 -999 -999 -99.9 -99.9 1017.4 -9.9 -9.999 -99.9 -99.99 -9.99
2019/07/16 16:54 EDT    0.36   0.75 -999 -999 -999 -99.9 -99.9 -999.9 -9.9 -9.999 -99.9 -99.99 -9.99
2019/07/16 17:00 EDT    0.41   0.77 -999 -999 -999 -99.9  85.1 1018.1 16.0  1.009 -99.9 -99.99 -9.99
2019/07/16 17:06 EDT    0.45   0.81 -999 -999 -999 -99.9 -99.9 1018.1 -9.9 -9.999 -99.9 -99.99 -9.99
2019/07/16 17:12 EDT    0.50   0.87 -999 -999 -999 -99.9 -99.9 1018.1 -9.9 -9.999 -99.9 -99.99 -9.99
2019/07/16 17:18 EDT    0.55   0.93 -999 -999 -999 -99.9 -99.9 1018.3 -9.9 -9.999 -99.9 -99.99 -9.99
2019/07/16 17:24 EDT    0.61   0.98 -999 -999 -999 -99.9 -99.9 1018.5 -9.9 -9.999 -99.9 -99.99 -9.99
2019/07/16 17:30 EDT    0.66   1.02 -999 -999 -999 -99.9 -99.9 1018.4 -9.9 -9.999 -99.9 -99.99 -9.99
2019/07/16 17:36 EDT    0.72   1.11 -999 -999 -999 -99.9  84.9 1018.2 16.0  1.009 -99.9 -99.99 -9.99
2019/07/16 17:42 EDT    0.78   1.08 -999 -999 -999 -99.9  84.9 1018.1 16.0  1.009 -99.9 -99.99 -9.99
2019/07/16 17:48 EDT    0.84   1.14 -999 -999 -999 -99.9  84.7 1017.8 16.0  1.009 -99.9 -99.99 -9.99
2019/07/16 17:54 EDT    0.90   1.17 -999 -999 -999 -99.9  84.9 1017.6 16.0  1.009 -99.9 -99.99 -9.99
2019/07/16 18:00 EDT    0.97   1.23 -999 -999 -999 -99.9  84.9 1017.4 16.0  1.009 -99.9 -99.99 -9.99
2019/07/16 18:06 EDT    1.03   1.21 -999 -999 -999 -99.9  84.9 1017.3 16.0  1.009 -99.9 -99.99 -9.99
2019/07/16 18:12 EDT    1.10   1.31 -999 -999 -999 -99.9  84.9 1017.2 16.0  1.009 -99.9 -99.99 -9.99
2019/07/16 18:18 EDT    1.16   1.37 -999 -999 -999 -99.9  84.9 1017.3 16.0  1.009 -99.9 -99.99 -9.99
2019/07/16 18:24 EDT    1.23   1.43 -999 -999 -999 -99.9  84.9 1017.7 15.9  1.009 -99.9 -99.99 -9.99
2019/07/16 18:30 EDT    1.30   1.48 -999 -999 -999 -99.9 -99.9 1017.7 -9.9 -9.999 -99.9 -99.99 -9.99
2019/07/16 18:36 EDT    1.37   1.58 -999 -999 -999 -99.9  84.9 1017.6 15.9  1.009 -99.9 -99.99 -9.99
2019/07/16 18:42 EDT    1.44   1.66 -999 -999 -999 -99.9  84.9 1017.8 15.9  1.009 -99.9 -99.99 -9.99
2019/07/16 18:48 EDT    1.51   1.74 -999 -999 -999 -99.9  84.9 1018.0 15.9  1.009 -99.9 -99.99 -9.99
2019/07/16 18:54 EDT    1.58   1.81 -999 -999 -999 -99.9 -99.9 1018.1 -9.9 -9.999 -99.9 -99.99 -9.99
2019/07/16 19:00 EDT    1.64   1.89 -999 -999 -999 -99.9 -99.9 1018.0 -9.9 -9.999 -99.9 -99.99 -9.99
2019/07/16 19:06 EDT    1.71   1.96 -999 -999 -999 -99.9 -99.9 1017.9 -9.9 -9.999 -99.9 -99.99 -9.99
2019/07/16 19:12 EDT    1.78   2.03 -999 -999 -999 -99.9 -99.9 1017.9 -9.9 -9.999 -99.9 -99.99 -9.99
2019/07/16 19:18 EDT    1.85   2.10 -999 -999 -999 -99.9 -99.9 1017.8 -9.9 -9.999 -99.9 -99.99 -9.99
2019/07/16 19:24 EDT    1.91   2.20 -999 -999 -999 -99.9 -99.9 1017.9 -9.9 -9.999 -99.9 -99.99 -9.99
2019/07/16 19:30 EDT    1.98   2.24 -999 -999 -999 -99.9 -99.9 1017.9 -9.9 -9.999 -99.9 -99.99 -9.99
2019/07/16 19:36 EDT    2.04   2.30 -999 -999 -999 -99.9 -99.9 1018.0 -9.9 -9.999 -99.9 -99.99 -9.99
2019/07/16 19:42 EDT    2.10   2.33 -999 -999 -999 -99.9 -99.9 1017.9 -9.9 -9.999 -99.9 -99.99 -9.99
2019/07/16 19:48 EDT    2.16   2.40 -999 -999 -999 -99.9 -99.9 1018.0 -9.9 -9.999 -99.9 -99.99 -9.99
2019/07/16 19:54 EDT    2.22   2.44 -999 -999 -999 -99.9 -99.9 1018.0 -9.9 -9.999 -99.9 -99.99 -9.99
2019/07/16 20:00 EDT    2.28   2.52 -999 -999 -999 -99.9 -99.9 1018.1 -9.9 -9.999 -99.9 -99.99 -9.99
2019/07/16 20:06 EDT    2.34   2.59 -999 -999 -999 -99.9 -99.9 1018.1 -9.9 -9.999 -99.9 -99.99 -9.99
2019/07/16 20:12 EDT    2.39   2.66 -999 -999 -999 -99.9 -99.9 1017.9 -9.9 -9.999 -99.9 -99.99 -9.99
2019/07/16 20:18 EDT    2.44   2.72 -999 -999 -999 -99.9 -99.9 1017.9 -9.9 -9.999 -99.9 -99.99 -9.99
2019/07/16 20:24 EDT    2.49   2.78 -999 -999 -999 -99.9 -99.9 1017.7 -9.9 -9.999 -99.9 -99.99 -9.99
2019/07/16 20:30 EDT    2.54   2.84 -999 -999 -999 -99.9 -99.9 1017.7 -9.9 -9.999 -99.9 -99.99 -9.99
2019/07/16 20:36 EDT    2.58   2.89 -999 -999 -999 -99.9 -99.9 1017.6 -9.9 -9.999 -99.9 -99.99 -9.99
2019/07/16 20:42 EDT    2.62   2.93 -999 -999 -999 -99.9 -99.9 1017.8 -9.9 -9.999 -99.9 -99.99 -9.99
2019/07/16 20:48 EDT    2.66   2.96 -999 -999 -999 -99.9 -99.9 1017.8 -9.9 -9.999 -99.9 -99.99 -9.99
2019/07/16 20:54 EDT    2.70   3.01 -999 -999 -999 -99.9 -99.9 -999.9 -9.9 -9.999 -99.9 -99.99 -9.99
2019/07/16 21:00 EDT    2.73   3.04 -999 -999 -999 -99.9 -99.9 1018.2 -9.9 -9.999 -99.9 -99.99 -9.99
2019/07/16 21:06 EDT    2.76   3.05 -999 -999 -999 -99.9 -99.9 1018.3 -9.9 -9.999 -99.9 -99.99 -9.99
2019/07/16 21:12 EDT    2.79   3.05 -999 -999 -999 -99.9  84.7 1018.4 -9.9 -9.999 -99.9 -99.99 -9.99
2019/07/16 21:18 EDT    2.81   3.10 -999 -999 -999 -99.9  84.7 1018.6 15.7  1.008 -99.9 -99.99 -9.99
2019/07/16 21:24 EDT    2.83   3.11 -999 -999 -999 -99.9  84.7 1018.6 -9.9 -9.999 -99.9 -99.99 -9.99
2019/07/16 21:30 EDT    2.85   3.13 -999 -999 -999 -99.9  84.7 1018.5 -9.9 -9.999 -99.9 -99.99 -9.99
2019/07/16 21:36 EDT    2.86   3.13 -999 -999 -999 -99.9  84.7 1018.5 15.7  1.008 -99.9 -99.99 -9.99
2019/07/16 21:42 EDT    2.88   3.17 -999 -999 -999 -99.9  84.7 1018.6 -9.9 -9.999 -99.9 -99.99 -9.99
2019/07/16 21:48 EDT    2.88   3.18 -999 -999 -999 -99.9  84.7 1018.6 -9.9 -9.999 -99.9 -99.99 -9.99
2019/07/16 21:54 EDT    2.89   3.18 -999 -999 -999 -99.9  84.7 1018.6 -9.9 -9.999 -99.9 -99.99 -9.99
2019/07/16 22:00 EDT    2.89   3.20 -999 -999 -999 -99.9  84.9 1018.6 -9.9 -9.999 -99.9 -99.99 -9.99
2019/07/16 22:06 EDT    2.89   3.19 -999 -999 -999 -99.9  84.9 1018.6 -9.9 -9.999 -99.9 -99.99 -9.99
2019/07/16 22:12 EDT    2.88   3.21 -999 -999 -999 -99.9  84.9 1018.6 -9.9 -9.999 -99.9 -99.99 -9.99
2019/07/16 22:18 EDT    2.88   3.19 -999 -999 -999 -99.9  84.7 1018.6 -9.9 -9.999 -99.9 -99.99 -9.99
2019/07/16 22:24 EDT    2.86   3.17 -999 -999 -999 -99.9  84.7 1018.5 -9.9 -9.999 -99.9 -99.99 -9.99
2019/07/16 22:30 EDT    2.85   3.16 -999 -999 -999 -99.9  84.7 1018.5 -9.9 -9.999 -99.9 -99.99 -9.99
2019/07/16 22:36 EDT    2.83   3.16 -999 -999 -999 -99.9  84.7 1018.4 -9.9 -9.999 -99.9 -99.99 -9.99
2019/07/16 22:42 EDT    2.81   3.13 -999 -999 -999 -99.9  84.7 1018.3 -9.9 -9.999 -99.9 -99.99 -9.99
2019/07/16 22:48 EDT    2.78   3.11 -999 -999 -999 -99.9  84.7 1018.3 -9.9 -9.999 -99.9 -99.99 -9.99
2019/07/16 22:54 EDT    2.76   3.09 -999 -999 -999 -99.9  84.6 1018.3 -9.9 -9.999 -99.9 -99.99 -9.99
2019/07/16 23:00 EDT    2.73   3.05 -999 -999 -999 -99.9  84.6 1018.3 -9.9 -9.999 -99.9 -99.99 -9.99
2019/07/16 23:06 EDT    2.69   3.01 -999 -999 -999 -99.9  84.6 1018.4 -9.9 -9.999 -99.9 -99.99 -9.99
2019/07/16 23:12 EDT    2.65   2.99 -999 -999 -999 -99.9  84.7 1018.3 -9.9 -9.999 -99.9 -99.99 -9.99
2019/07/16 23:18 EDT    2.62   2.96 -999 -999 -999 -99.9  84.7 1018.3 -9.9 -9.999 -99.9 -99.99 -9.99
2019/07/16 23:24 EDT    2.57   2.93 -999 -999 -999 -99.9  84.7 1018.4 15.8  1.009 -99.9 -99.99 -9.99
2019/07/16 23:30 EDT    2.53   2.90 -999 -999 -999 -99.9  84.7 1018.4 -9.9 -9.999 -99.9 -99.99 -9.99
2019/07/16 23:36 EDT    2.48   2.86 -999 -999 -999 -99.9  84.7 1018.5 -9.9 -9.999 -99.9 -99.99 -9.99
2019/07/16 23:42 EDT    2.43   2.82 -999 -999 -999 -99.9  84.7 1018.5 -9.9 -9.999 -99.9 -99.99 -9.99
2019/07/16 23:48 EDT    2.38   2.78 -999 -999 -999 -99.9  84.7 1018.5 -9.9 -9.999 -99.9 -99.99 -9.99
2019/07/16 23:54 EDT    2.32   2.73 -999 -999 -999 -99.9  84.7 1018.4 15.8  1.009 -99.9 -99.99 -9.99
2019/07/17 00:00 EDT    2.27   2.68 -999 -999 -999 -99.9  84.7 1018.4 15.8  1.009 -99.9 -99.99 -9.99
2019/07/17 00:06 EDT    2.21   2.64 -999 -999 -999 -99.9  84.7 1018.3 15.8  1.009 -99.9 -99.99 -9.99
2019/07/17 00:12 EDT    2.15   2.58 -999 -999 -999 -99.9  84.7 1018.2 -9.9 -9.999 -99.9 -99.99 -9.99
2019/07/17 00:18 EDT    2.09   2.53 -999 -999 -999 -99.9  84.7 1018.2 15.8  1.009 -99.9 -99.99 -9.99
2019/07/17 00:24 EDT    2.02   2.48 -999 -999 -999 -99.9  84.7 1018.1 15.8  1.009 -99.9 -99.99 -9.99
2019/07/17 00:30 EDT    1.96   2.42 -999 -999 -999 -99.9  84.7 1018.0 15.8  1.009 -99.9 -99.99 -9.99
2019/07/17 00:36 EDT    1.89   2.37 -999 -999 -999 -99.9  84.7 1018.0 15.8  1.009 -99.9 -99.99 -9.99
2019/07/17 00:42 EDT    1.82   2.29 -999 -999 -999 -99.9  84.7 1018.0 15.8  1.009 -99.9 -99.99 -9.99
2019/07/17 00:48 EDT    1.76   2.22 -999 -999 -999 -99.9  84.7 1018.0 15.8  1.009 -99.9 -99.99 -9.99
2019/07/17 00:54 EDT    1.69   2.15 -999 -999 -999 -99.9  84.7 1018.0 15.8  1.009 -99.9 -99.99 -9.99
2019/07/17 01:00 EDT    1.62   2.08 -999 -999 -999 -99.9  84.7 1018.0 15.8  1.009 -99.9 -99.99 -9.99
2019/07/17 01:06 EDT    1.55   2.01 -999 -999 -999 -99.9  84.7 1018.0 15.8  1.009 -99.9 -99.99 -9.99
2019/07/17 01:12 EDT    1.48   1.93 -999 -999 -999 -99.9  84.7 1017.9 -9.9 -9.999 -99.9 -99.99 -9.99
2019/07/17 01:18 EDT    1.41   1.86 -999 -999 -999 -99.9  84.7 1017.9 -9.9 -9.999 -99.9 -99.99 -9.99
2019/07/17 01:24 EDT    1.34   1.79 -999 -999 -999 -99.9  84.7 1017.8 -9.9 -9.999 -99.9 -99.99 -9.99
2019/07/17 01:30 EDT    1.27   1.72 -999 -999 -999 -99.9  84.7 1017.8 -9.9 -9.999 -99.9 -99.99 -9.99
2019/07/17 01:36 EDT    1.20   1.65 -999 -999 -999 -99.9  84.7 1017.8 -9.9 -9.999 -99.9 -99.99 -9.99
2019/07/17 01:42 EDT    1.13   1.58 -999 -999 -999 -99.9  84.6 1017.8 -9.9 -9.999 -99.9 -99.99 -9.99
2019/07/17 01:48 EDT    1.06   1.51 -999 -999 -999 -99.9  84.6 1017.7 -9.9 -9.999 -99.9 -99.99 -9.99
2019/07/17 01:54 EDT    1.00   1.44 -999 -999 -999 -99.9  84.6 1017.6 -9.9 -9.999 -99.9 -99.99 -9.99
2019/07/17 02:00 EDT    0.93   1.38 -999 -999 -999 -99.9  84.6 1017.6 -9.9 -9.999 -99.9 -99.99 -9.99
2019/07/17 02:06 EDT    0.87   1.31 -999 -999 -999 -99.9  84.6 1017.6 -9.9 -9.999 -99.9 -99.99 -9.99
2019/07/17 02:12 EDT    0.81   1.24 -999 -999 -999 -99.9  84.6 1017.6 -9.9 -9.999 -99.9 -99.99 -9.99
2019/07/17 02:18 EDT    0.74   1.17 -999 -999 -999 -99.9  84.7 1017.5 -9.9 -9.999 -99.9 -99.99 -9.99
2019/07/17 02:24 EDT    0.69   1.11 -999 -999 -999 -99.9  84.7 1017.5 -9.9 -9.999 -99.9 -99.99 -9.99
2019/07/17 02:30 EDT    0.63   1.05 -999 -999 -999 -99.9  84.7 1017.4 -9.9 -9.999 -99.9 -99.99 -9.99
2019/07/17 02:36 EDT    0.57   0.99 -999 -999 -999 -99.9  84.7 1017.4 -9.9 -9.999 -99.9 -99.99 -9.99
2019/07/17 02:42 EDT    0.52   0.94 -999 -999 -999 -99.9  84.7 1017.3 -9.9 -9.999 -99.9 -99.99 -9.99
2019/07/17 02:48 EDT    0.47   0.89 -999 -999 -999 -99.9  84.7 1017.3 -9.9 -9.999 -99.9 -99.99 -9.99
2019/07/17 02:54 EDT    0.42   0.84 -999 -999 -999 -99.9  84.7 1017.3 -9.9 -9.999 -99.9 -99.99 -9.99
2019/07/17 03:00 EDT    0.38   0.80 -999 -999 -999 -99.9  84.7 1017.3 -9.9 -9.999 -99.9 -99.99 -9.99
2019/07/17 03:06 EDT    0.34   0.76 -999 -999 -999 -99.9  84.7 1017.3 -9.9 -9.999 -99.9 -99.99 -9.99
2019/07/17 03:12 EDT    0.30   0.72 -999 -999 -999 -99.9  84.7 1017.3 -9.9 -9.999 -99.9 -99.99 -9.99
2019/07/17 03:18 EDT    0.26   0.68 -999 -999 -999 -99.9  84.7 1017.2 -9.9 -9.999 -99.9 -99.99 -9.99
2019/07/17 03:24 EDT    0.23   0.64 -999 -999 -999 -99.9  84.7 1017.2 -9.9 -9.999 -99.9 -99.99 -9.99
2019/07/17 03:30 EDT    0.20   0.61 -999 -999 -999 -99.9  84.7 1017.2 -9.9 -9.999 -99.9 -99.99 -9.99
2019/07/17 03:36 EDT    0.17   0.59 -999 -999 -999 -99.9  84.7 1017.1 -9.9 -9.999 -99.9 -99.99 -9.99
2019/07/17 03:42 EDT    0.15   0.56 -999 -999 -999 -99.9  84.6 1017.1 -9.9 -9.999 -99.9 -99.99 -9.99
2019/07/17 03:48 EDT    0.13   0.54 -999 -999 -999 -99.9  84.6 1017.0 -9.9 -9.999 -99.9 -99.99 -9.99
2019/07/17 03:54 EDT    0.11   0.51 -999 -999 -999 -99.9  84.6 1017.0 -9.9 -9.999 -99.9 -99.99 -9.99
2019/07/17 04:00 EDT    0.10   0.49 -999 -999 -999 -99.9  84.4 1017.0 -9.9 -9.999 -99.9 -99.99 -9.99
2019/07/17 04:06 EDT    0.09   0.48 -999 -999 -999 -99.9  84.4 1016.9 -9.9 -9.999 -99.9 -99.99 -9.99
2019/07/17 04:12 EDT    0.08   0.47 -999 -999 -999 -99.9  84.4 1016.9 -9.9 -9.999 -99.9 -99.99 -9.99
2019/07/17 04:18 EDT    0.08   0.47 -999 -999 -999 -99.9  84.4 1016.9 -9.9 -9.999 -99.9 -99.99 -9.99
2019/07/17 04:24 EDT    0.08   0.47 -999 -999 -999 -99.9  84.4 1016.9 -9.9 -9.999 -99.9 -99.99 -9.99
2019/07/17 04:30 EDT    0.09   0.46 -999 -999 -999 -99.9  84.4 1016.9 -9.9 -9.999 -99.9 -99.99 -9.99
2019/07/17 04:36 EDT    0.10   0.46 -999 -999 -999 -99.9  84.4 1016.9 -9.9 -9.999 -99.9 -99.99 -9.99
2019/07/17 04:42 EDT    0.11   0.46 -999 -999 -999 -99.9  84.4 1016.9 -9.9 -9.999 -99.9 -99.99 -9.99
2019/07/17 04:48 EDT    0.12   0.46 -999 -999 -999 -99.9  84.4 1016.9 -9.9 -9.999 -99.9 -99.99 -9.99
2019/07/17 04:54 EDT    0.14   0.48 -999 -999 -999 -99.9  84.2 1016.9 -9.9 -9.999 -99.9 -99.99 -9.99
2019/07/17 05:00 EDT    0.16   0.49 -999 -999 -999 -99.9  84.4 1016.9 -9.9 -9.999 -99.9 -99.99 -9.99
2019/07/17 05:06 EDT    0.18   0.51 -999 -999 -999 -99.9  84.4 1017.0 -9.9 -9.999 -99.9 -99.99 -9.99
2019/07/17 05:12 EDT    0.21   0.54 -999 -999 -999 -99.9  84.4 1017.1 -9.9 -9.999 -99.9 -99.99 -9.99
2019/07/17 05:18 EDT    0.24   0.52 -999 -999 -999 -99.9  84.4 1017.0 -9.9 -9.999 -99.9 -99.99 -9.99
2019/07/17 05:24 EDT    0.27   0.57 -999 -999 -999 -99.9  84.4 1017.1 -9.9 -9.999 -99.9 -99.99 -9.99
2019/07/17 05:30 EDT    0.31   0.59 -999 -999 -999 -99.9  84.4 1017.1 -9.9 -9.999 -99.9 -99.99 -9.99
2019/07/17 05:36 EDT    0.35   0.62 -999 -999 -999 -99.9  84.4 1017.1 -9.9 -9.999 -99.9 -99.99 -9.99
2019/07/17 05:42 EDT    0.39   0.66 -999 -999 -999 -99.9  84.4 1017.1 -9.9 -9.999 -99.9 -99.99 -9.99
2019/07/17 05:48 EDT    0.43   0.69 -999 -999 -999 -99.9  84.4 1017.2 -9.9 -9.999 -99.9 -99.99 -9.99
2019/07/17 05:54 EDT    0.48   0.73 -999 -999 -999 -99.9  84.4 1017.2 -9.9 -9.999 -99.9 -99.99 -9.99
2019/07/17 06:00 EDT    0.52   0.76 -999 -999 -999 -99.9  84.2 1017.1 16.0  1.009 -99.9 -99.99 -9.99
2019/07/17 06:06 EDT    0.57   0.81 -999 -999 -999 -99.9  84.2 1017.1 16.0  1.009 -99.9 -99.99 -9.99
2019/07/17 06:12 EDT    0.62   0.85 -999 -999 -999 -99.9  84.2 1017.1 -9.9 -9.999 -99.9 -99.99 -9.99
2019/07/17 06:18 EDT    0.68   0.90 -999 -999 -999 -99.9  84.2 1017.1 -9.9 -9.999 -99.9 -99.99 -9.99
2019/07/17 06:24 EDT    0.73   0.95 -999 -999 -999 -99.9  84.2 1017.1 -9.9 -9.999 -99.9 -99.99 -9.99
2019/07/17 06:30 EDT    0.79   0.99 -999 -999 -999 -99.9  84.2 1017.1 -9.9 -9.999 -99.9 -99.99 -9.99
2019/07/17 06:36 EDT    0.84   1.06 -999 -999 -999 -99.9  84.2 1017.1 -9.9 -9.999 -99.9 -99.99 -9.99
2019/07/17 06:42 EDT    0.90   1.11 -999 -999 -999 -99.9 -99.9 -999.9 -9.9 -9.999 -99.9 -99.99 -9.99
2019/07/17 06:48 EDT    0.96   1.16 -999 -999 -999 -99.9  84.2 1017.2 -9.9 -9.999 -99.9 -99.99 -9.99
2019/07/17 06:54 EDT    1.02   1.22 -999 -999 -999 -99.9  84.2 1017.2 -9.9 -9.999 -99.9 -99.99 -9.99
2019/07/17 07:00 EDT    1.08   1.28 -999 -999 -999 -99.9  84.2 1017.3 15.9  1.009 -99.9 -99.99 -9.99
2019/07/17 07:06 EDT    1.14   1.34 -999 -999 -999 -99.9  84.2 1017.3 15.9  1.009 -99.9 -99.99 -9.99
2019/07/17 07:12 EDT    1.20   1.40 -999 -999 -999 -99.9  84.2 1017.2 15.9  1.009 -99.9 -99.99 -9.99
2019/07/17 07:18 EDT    1.26   1.47 -999 -999 -999 -99.9  84.2 1017.3 15.9  1.009 -99.9 -99.99 -9.99
2019/07/17 07:24 EDT    1.32   1.53 -999 -999 -999 -99.9  84.2 1017.2 16.0  1.009 -99.9 -99.99 -9.99
2019/07/17 07:30 EDT    1.38   1.59 -999 -999 -999 -99.9  84.2 1017.3 16.0  1.009 -99.9 -99.99 -9.99
2019/07/17 07:36 EDT    1.43   1.65 -999 -999 -999 -99.9  84.2 1017.3 16.0  1.009 -99.9 -99.99 -9.99
2019/07/17 07:42 EDT    1.49   1.72 -999 -999 -999 -99.9  84.2 1017.3 15.9  1.009 -99.9 -99.99 -9.99
2019/07/17 07:48 EDT    1.55   1.77 -999 -999 -999 -99.9  84.2 1017.3 15.9  1.009 -99.9 -99.99 -9.99
2019/07/17 07:54 EDT    1.61   1.82 -999 -999 -999 -99.9  84.2 1017.4 15.9  1.009 -99.9 -99.99 -9.99
2019/07/17 08:00 EDT    1.66   1.88 -999 -999 -999 -99.9  84.2 1017.4 15.9  1.009 -99.9 -99.99 -9.99
2019/07/17 08:06 EDT    1.71   1.93 -999 -999 -999 -99.9  84.0 1017.4 16.0  1.009 -99.9 -99.99 -9.99
2019/07/17 08:12 EDT    1.77   1.99 -999 -999 -999 -99.9  84.0 1017.4 16.0  1.009 -99.9 -99.99 -9.99
2019/07/17 08:18 EDT    1.82   2.04 -999 -999 -999 -99.9  84.2 1017.4 15.9  1.009 -99.9 -99.99 -9.99
2019/07/17 08:24 EDT    1.87   2.09 -999 -999 -999 -99.9  84.2 1017.4 15.9  1.009 -99.9 -99.99 -9.99
2019/07/17 08:30 EDT    1.91   2.15 -999 -999 -999 -99.9  84.2 1017.4 16.0  1.009 -99.9 -99.99 -9.99
2019/07/17 08:36 EDT    1.96   2.21 -999 -999 -999 -99.9  84.2 1017.5 16.0  1.009 -99.9 -99.99 -9.99
2019/07/17 08:42 EDT    2.00   2.25 -999 -999 -999 -99.9  84.2 1017.5 15.9  1.009 -99.9 -99.99 -9.99
2019/07/17 08:48 EDT    2.04   2.32 -999 -999 -999 -99.9  84.0 1017.5 16.0  1.009 -99.9 -99.99 -9.99
2019/07/17 08:54 EDT    2.08   2.36 -999 -999 -999 -99.9 -99.9 1017.4 -9.9 -9.999 -99.9 -99.99 -9.99
2019/07/17 09:00 EDT    2.12   2.41 -999 -999 -999 -99.9  84.0 1017.4 16.0  1.009 -99.9 -99.99 -9.99
2019/07/17 09:06 EDT    2.15   2.46 -999 -999 -999 -99.9  84.0 1017.4 16.0  1.009 -99.9 -99.99 -9.99
2019/07/17 09:12 EDT    2.19   2.50 -999 -999 -999 -99.9  84.0 1017.4 16.0  1.009 -99.9 -99.99 -9.99
2019/07/17 09:18 EDT    2.21   2.53 -999 -999 -999 -99.9  84.0 1017.4 16.0  1.009 -99.9 -99.99 -9.99
2019/07/17 09:24 EDT    2.24   2.57 -999 -999 -999 -99.9  84.0 1017.4 16.0  1.009 -99.9 -99.99 -9.99
2019/07/17 09:30 EDT    2.26   2.59 -999 -999 -999 -99.9  83.8 1017.3 16.0  1.009 -99.9 -99.99 -9.99
2019/07/17 09:36 EDT    2.29   2.62 -999 -999 -999 -99.9  83.8 1017.3 16.0  1.009 -99.9 -99.99 -9.99
2019/07/17 09:42 EDT    2.30   2.63 -999 -999 -999 -99.9  83.3 1017.2 16.2  1.009 -99.9 -99.99 -9.99
2019/07/17 09:48 EDT    2.32   2.64 -999 -999 -999 -99.9  83.1 1017.2 16.3  1.009 -99.9 -99.99 -9.99
2019/07/17 09:54 EDT    2.33   2.67 -999 -999 -999 -99.9  83.5 1017.3 16.2  1.009 -99.9 -99.99 -9.99
2019/07/17 10:00 EDT    2.34   2.67 -999 -999 -999 -99.9  83.5 1017.2 16.1  1.009 -99.9 -99.99 -9.99
2019/07/17 10:06 EDT    2.35   2.69 -999 -999 -999 -99.9  83.5 1017.2 16.1  1.009 -99.9 -99.99 -9.99
2019/07/17 10:12 EDT    2.35   2.70 -999 -999 -999 -99.9 -99.9 1017.2 -9.9 -9.999 -99.9 -99.99 -9.99
2019/07/17 10:18 EDT    2.35   2.69 -999 -999 -999 -99.9 -99.9 1017.1 -9.9 -9.999 -99.9 -99.99 -9.99
2019/07/17 10:24 EDT    2.35   2.70 -999 -999 -999 -99.9  83.3 1017.1 16.2  1.009 -99.9 -99.99 -9.99
2019/07/17 10:30 EDT    2.34   2.70 -999 -999 -999 -99.9 -99.9 1017.0 -9.9 -9.999 -99.9 -99.99 -9.99
2019/07/17 10:36 EDT    2.34   2.71 -999 -999 -999 -99.9 -99.9 1017.0 -9.9 -9.999 -99.9 -99.99 -9.99
2019/07/17 10:42 EDT    2.32   2.71 -999 -999 -999 -99.9  83.3 1017.0 16.2  1.009 -99.9 -99.99 -9.99
2019/07/17 10:48 EDT    2.31   2.71 -999 -999 -999 -99.9 -99.9 1017.0 -9.9 -9.999 -99.9 -99.99 -9.99
2019/07/17 10:54 EDT    2.29   2.70 -999 -999 -999 -99.9 -99.9 1016.9 -9.9 -9.999 -99.9 -99.99 -9.99
2019/07/17 11:00 EDT    2.27   2.69 -999 -999 -999 -99.9  83.3 1016.9 16.2  1.009 -99.9 -99.99 -9.99
2019/07/17 11:06 EDT    2.25   2.68 -999 -999 -999 -99.9 -99.9 1017.0 -9.9 -9.999 -99.9 -99.99 -9.99
2019/07/17 11:12 EDT    2.23   2.65 -999 -999 -999 -99.9 -99.9 1016.9 -9.9 -9.999 -99.9 -99.99 -9.99
2019/07/17 11:18 EDT    2.20   2.64 -999 -999 -999 -99.9 -99.9 1016.9 -9.9 -9.999 -99.9 -99.99 -9.99
2019/07/17 11:24 EDT    2.17   2.61 -999 -999 -999 -99.9 -99.9 1016.9 -9.9 -9.999 -99.9 -99.99 -9.99
2019/07/17 11:30 EDT    2.14   2.59 -999 -999 -999 -99.9 -99.9 1016.9 -9.9 -9.999 -99.9 -99.99 -9.99
2019/07/17 11:36 EDT    2.10   2.54 -999 -999 -999 -99.9 -99.9 1016.8 -9.9 -9.999 -99.9 -99.99 -9.99
2019/07/17 11:42 EDT    2.06   2.50 -999 -999 -999 -99.9 -99.9 1016.8 -9.9 -9.999 -99.9 -99.99 -9.99
2019/07/17 11:48 EDT    2.02   2.46 -999 -999 -999 -99.9 -99.9 1016.8 -9.9 -9.999 -99.9 -99.99 -9.99
2019/07/17 11:54 EDT    1.98   2.43 -999 -999 -999 -99.9 -99.9 1016.8 -9.9 -9.999 -99.9 -99.99 -9.99
2019/07/17 12:00 EDT    1.94   2.39 -999 -999 -999 -99.9 -99.9 1016.8 -9.9 -9.999 -99.9 -99.99 -9.99
2019/07/17 12:06 EDT    1.89   2.37 -999 -999 -999 -99.9 -99.9 1016.7 -9.9 -9.999 -99.9 -99.99 -9.99
2019/07/17 12:12 EDT    1.85   2.27 -999 -999 -999 -99.9  83.3 1016.8 16.1  1.009 -99.9 -99.99 -9.99
2019/07/17 12:18 EDT    1.80   2.28 -999 -999 -999 -99.9 -99.9 1016.8 -9.9 -9.999 -99.9 -99.99 -9.99
2019/07/17 12:24 EDT    1.75   2.23 -999 -999 -999 -99.9  83.8 1016.7 16.1  1.009 -99.9 -99.99 -9.99
2019/07/17 12:30 EDT    1.69   2.19 -999 -999 -999 -99.9  83.7 1016.7 16.1  1.009 -99.9 -99.99 -9.99
2019/07/17 12:36 EDT    1.64   2.13 -999 -999 -999 -99.9  83.7 1016.6 16.1  1.009 -99.9 -99.99 -9.99
2019/07/17 12:42 EDT    1.59   2.08 -999 -999 -999 -99.9  83.7 1016.5 16.1  1.009 -99.9 -99.99 -9.99
2019/07/17 12:48 EDT    1.53   2.02 -999 -999 -999 -99.9 -99.9 1016.5 -9.9 -9.999 -99.9 -99.99 -9.99
2019/07/17 12:54 EDT    1.47   1.96 -999 -999 -999 -99.9 -99.9 1016.4 -9.9 -9.999 -99.9 -99.99 -9.99
2019/07/17 13:00 EDT    1.42   1.90 -999 -999 -999 -99.9 -99.9 1016.3 -9.9 -9.999 -99.9 -99.99 -9.99
2019/07/17 13:06 EDT    1.36   1.84 -999 -999 -999 -99.9 -99.9 -999.9 -9.9 -9.999 -99.9 -99.99 -9.99
2019/07/17 13:12 EDT    1.30   1.78 -999 -999 -999 -99.9 -99.9 1016.3 -9.9 -9.999 -99.9 -99.99 -9.99
2019/07/17 13:18 EDT    1.24   1.72 -999 -999 -999 -99.9 -99.9 1016.2 -9.9 -9.999 -99.9 -99.99 -9.99
2019/07/17 13:24 EDT    1.18   1.66 -999 -999 -999 -99.9 -99.9 1016.2 -9.9 -9.999 -99.9 -99.99 -9.99
2019/07/17 13:30 EDT    1.12   1.60 -999 -999 -999 -99.9 -99.9 1016.2 -9.9 -9.999 -99.9 -99.99 -9.99
2019/07/17 13:36 EDT    1.07   1.55 -999 -999 -999 -99.9 -99.9 1016.1 -9.9 -9.999 -99.9 -99.99 -9.99
2019/07/17 13:42 EDT    1.01   1.49 -999 -999 -999 -99.9 -99.9 1016.0 -9.9 -9.999 -99.9 -99.99 -9.99
2019/07/17 13:48 EDT    0.95   1.40 -999 -999 -999 -99.9 -99.9 1015.9 -9.9 -9.999 -99.9 -99.99 -9.99
2019/07/17 13:54 EDT    0.89   1.32 -999 -999 -999 -99.9 -99.9 1015.8 -9.9 -9.999 -99.9 -99.99 -9.99
2019/07/17 14:00 EDT    0.84   1.29 -999 -999 -999 -99.9  84.4 1015.7 16.0  1.009 -99.9 -99.99 -9.99
2019/07/17 14:06 EDT    0.78   1.25 -999 -999 -999 -99.9  84.6 1015.7 16.0  1.009 -99.9 -99.99 -9.99
2019/07/17 14:12 EDT    0.73   1.18 -999 -999 -999 -99.9  84.6 1015.7 16.0  1.009 -99.9 -99.99 -9.99
2019/07/17 14:18 EDT    0.68   1.10 -999 -999 -999 -99.9  84.6 1015.6 16.0  1.009 -99.9 -99.99 -9.99
2019/07/17 14:24 EDT    0.63   1.08 -999 -999 -999 -99.9  84.6 1015.6 16.0  1.009 -99.9 -99.99 -9.99
2019/07/17 14:30 EDT    0.58   1.01 -999 -999 -999 -99.9  84.4 1015.5 16.0  1.009 -99.9 -99.99 -9.99
2019/07/17 14:36 EDT    0.53   0.95 -999 -999 -999 -99.9  84.7 1015.5 16.0  1.009 -99.9 -99.99 -9.99
2019/07/17 14:42 EDT    0.48   0.90 -999 -999 -999 -99.9  84.6 1015.4 16.0  1.009 -99.9 -99.99 -9.99
2019/07/17 14:48 EDT    0.44   0.85 -999 -999 -999 -99.9  84.6 1015.2 16.0  1.009 -99.9 -99.99 -9.99
2019/07/17 14:54 EDT    0.40   0.82 -999 -999 -999 -99.9  84.4 1015.1 16.0  1.009 -99.9 -99.99 -9.99
2019/07/17 15:00 EDT    0.36   0.76 -999 -999 -999 -99.9  84.4 1015.1 16.0  1.009 -99.9 -99.99 -9.99
2019/07/17 15:06 EDT    0.32   0.75 -999 -999 -999 -99.9  84.4 1015.0 16.0  1.009 -99.9 -99.99 -9.99
2019/07/17 15:12 EDT    0.29   0.69 -999 -999 -999 -99.9 -99.9 1014.8 -9.9 -9.999 -99.9 -99.99 -9.99
2019/07/17 15:18 EDT    0.26   0.67 -999 -999 -999 -99.9 -99.9 1014.8 -9.9 -9.999 -99.9 -99.99 -9.99
2019/07/17 15:24 EDT    0.23   0.65 -999 -999 -999 -99.9 -99.9 1014.7 -9.9 -9.999 -99.9 -99.99 -9.99
2019/07/17 15:30 EDT    0.20   0.61 -999 -999 -999 -99.9 -99.9 1014.6 -9.9 -9.999 -99.9 -99.99 -9.99
2019/07/17 15:36 EDT    0.18   0.61 -999 -999 -999 -99.9 -99.9 1014.6 -9.9 -9.999 -99.9 -99.99 -9.99
2019/07/17 15:42 EDT    0.16   0.56 -999 -999 -999 -99.9 -99.9 1014.5 -9.9 -9.999 -99.9 -99.99 -9.99
2019/07/17 15:48 EDT    0.14   0.55 -999 -999 -999 -99.9 -99.9 1014.3 -9.9 -9.999 -99.9 -99.99 -9.99
2019/07/17 15:54 EDT    0.13   0.53 -999 -999 -999 -99.9 -99.9 1014.3 -9.9 -9.999 -99.9 -99.99 -9.99
2019/07/17 16:00 EDT    0.12   0.53 -999 -999 -999 -99.9 -99.9 1014.3 -9.9 -9.999 -99.9 -99.99 -9.99
2019/07/17 16:06 EDT    0.11   0.44 -999 -999 -999 -99.9 -99.9 1014.2 -9.9 -9.999 -99.9 -99.99 -9.99
2019/07/17 16:12 EDT    0.11   0.47 -999 -999 -999 -99.9 -99.9 1014.2 -9.9 -9.999 -99.9 -99.99 -9.99
2019/07/17 16:18 EDT    0.11   0.48 -999 -999 -999 -99.9 -99.9 1014.2 -9.9 -9.999 -99.9 -99.99 -9.99
2019/07/17 16:24 EDT    0.11   0.46 -999 -999 -999 -99.9 -99.9 1014.2 -9.9 -9.999 -99.9 -99.99 -9.99
2019/07/17 16:30 EDT    0.11   0.48 -999 -999 -999 -99.9 -99.9 1014.1 -9.9 -9.999 -99.9 -99.99 -9.99
2019/07/17 16:36 EDT    0.12   0.44 -999 -999 -999 -99.9 -99.9 1014.0 -9.9 -9.999 -99.9 -99.99 -9.99
2019/07/17 16:42 EDT    0.13   0.47 -999 -999 -999 -99.9 -99.9 1014.0 -9.9 -9.999 -99.9 -99.99 -9.99
2019/07/17 16:48 EDT    0.15   0.46 -999 -999 -999 -99.9 -99.9 1013.9 -9.9 -9.999 -99.9 -99.99 -9.99
2019/07/17 16:54 EDT    0.17   0.48 -999 -999 -999 -99.9 -99.9 1013.8 -9.9 -9.999 -99.9 -99.99 -9.99
2019/07/17 17:00 EDT    0.19   0.52 -999 -999 -999 -99.9 -99.9 1013.7 -9.9 -9.999 -99.9 -99.99 -9.99
2019/07/17 17:06 EDT    0.22   0.51 -999 -999 -999 -99.9 -99.9 1013.5 -9.9 -9.999 -99.9 -99.99 -9.99
2019/07/17 17:12 EDT    0.24   0.52 -999 -999 -999 -99.9 -99.9 1013.4 -9.9 -9.999 -99.9 -99.99 -9.99
2019/07/17 17:18 EDT    0.27   0.56 -999 -999 -999 -99.9 -99.9 1013.4 -9.9 -9.999 -99.9 -99.99 -9.99
2019/07/17 17:24 EDT    0.31   0.59 -999 -999 -999 -99.9 -99.9 1013.4 -9.9 -9.999 -99.9 -99.99 -9.99
2019/07/17 17:30 EDT    0.35   0.63 -999 -999 -999 -99.9 -99.9 1013.5 -9.9 -9.999 -99.9 -99.99 -9.99
2019/07/17 17:36 EDT    0.39   0.65 -999 -999 -999 -99.9 -99.9 1013.8 -9.9 -9.999 -99.9 -99.99 -9.99
2019/07/17 17:42 EDT    0.43   0.69 -999 -999 -999 -99.9 -99.9 1013.7 -9.9 -9.999 -99.9 -99.99 -9.99
2019/07/17 17:48 EDT    0.47   0.74 -999 -999 -999 -99.9 -99.9 1013.6 -9.9 -9.999 -99.9 -99.99 -9.99
2019/07/17 17:54 EDT    0.52   0.77 -999 -999 -999 -99.9 -99.9 1013.4 -9.9 -9.999 -99.9 -99.99 -9.99
2019/07/17 18:00 EDT    0.57   0.83 -999 -999 -999 -99.9 -99.9 1013.4 -9.9 -9.999 -99.9 -99.99 -9.99
2019/07/17 18:06 EDT    0.62   0.86 -999 -999 -999 -99.9  85.5 1013.4 15.9  1.008 -99.9 -99.99 -9.99
2019/07/17 18:12 EDT    0.68   0.91 -999 -999 -999 -99.9  85.6 1013.4 15.9  1.008 -99.9 -99.99 -9.99
2019/07/17 18:18 EDT    0.73   0.97 -999 -999 -999 -99.9  85.8 1013.5 15.9  1.008 -99.9 -99.99 -9.99
2019/07/17 18:24 EDT    0.79   1.01 -999 -999 -999 -99.9  85.6 1013.6 15.9  1.008 -99.9 -99.99 -9.99
2019/07/17 18:30 EDT    0.85   1.07 -999 -999 -999 -99.9  85.6 1013.7 15.9  1.008 -99.9 -99.99 -9.99
2019/07/17 18:36 EDT    0.91   1.12 -999 -999 -999 -99.9  85.6 1013.6 15.9  1.008 -99.9 -99.99 -9.99
2019/07/17 18:42 EDT    0.97   1.18 -999 -999 -999 -99.9  85.8 1013.5 15.9  1.008 -99.9 -99.99 -9.99
2019/07/17 18:48 EDT    1.04   1.23 -999 -999 -999 -99.9  85.5 1013.5 15.8  1.008 -99.9 -99.99 -9.99
2019/07/17 18:54 EDT    1.10   1.28 -999 -999 -999 -99.9  85.5 1013.6 15.7  1.008 -99.9 -99.99 -9.99
2019/07/17 19:00 EDT    1.17   1.34 -999 -999 -999 -99.9  85.5 1013.7 15.7  1.008 -99.9 -99.99 -9.99
2019/07/17 19:06 EDT    1.23   1.40 -999 -999 -999 -99.9  85.5 1013.6 15.7  1.008 -99.9 -99.99 -9.99
2019/07/17 19:12 EDT    1.30   1.49 -999 -999 -999 -99.9  85.5 1013.6 15.8  1.008 -99.9 -99.99 -9.99
2019/07/17 19:18 EDT    1.37   1.57 -999 -999 -999 -99.9  85.5 1013.5 15.7  1.008 -99.9 -99.99 -9.99
2019/07/17 19:24 EDT    1.43   1.59 -999 -999 -999 -99.9  85.5 1013.4 15.7  1.008 -99.9 -99.99 -9.99
2019/07/17 19:30 EDT    1.50   1.67 -999 -999 -999 -99.9  85.5 1013.3 15.6  1.008 -99.9 -99.99 -9.99
2019/07/17 19:36 EDT    1.57   1.76 -999 -999 -999 -99.9  85.6 1013.3 15.7  1.008 -99.9 -99.99 -9.99
2019/07/17 19:42 EDT    1.64   1.84 -999 -999 -999 -99.9  85.5 1013.3 15.7  1.008 -99.9 -99.99 -9.99
2019/07/17 19:48 EDT    1.70   1.87 -999 -999 -999 -99.9  85.5 1013.3 15.7  1.008 -99.9 -99.99 -9.99
2019/07/17 19:54 EDT    1.77   1.93 -999 -999 -999 -99.9  85.6 1013.3 15.7  1.008 -99.9 -99.99 -9.99
2019/07/17 20:00 EDT    1.83   2.00 -999 -999 -999 -99.9  85.5 1013.2 15.7  1.008 -99.9 -99.99 -9.99
2019/07/17 20:06 EDT    1.90   2.08 -999 -999 -999 -99.9 -99.9 1013.3 -9.9 -9.999 -99.9 -99.99 -9.99
2019/07/17 20:12 EDT    1.96   2.15 -999 -999 -999 -99.9 -99.9 1013.3 -9.9 -9.999 -99.9 -99.99 -9.99
2019/07/17 20:18 EDT    2.02   2.23 -999 -999 -999 -99.9 -99.9 1013.3 -9.9 -9.999 -99.9 -99.99 -9.99
2019/07/17 20:24 EDT    2.08   2.27 -999 -999 -999 -99.9 -99.9 1013.2 -9.9 -9.999 -99.9 -99.99 -9.99
2019/07/17 20:30 EDT    2.14   2.36 -999 -999 -999 -99.9 -99.9 1013.2 -9.9 -9.999 -99.9 -99.99 -9.99
2019/07/17 20:36 EDT    2.20   2.41 -999 -999 -999 -99.9 -99.9 1013.1 -9.9 -9.999 -99.9 -99.99 -9.99
2019/07/17 20:42 EDT    2.26   2.46 -999 -999 -999 -99.9 -99.9 1012.9 -9.9 -9.999 -99.9 -99.99 -9.99
2019/07/17 20:48 EDT    2.31   2.51 -999 -999 -999 -99.9 -99.9 1012.9 -9.9 -9.999 -99.9 -99.99 -9.99
2019/07/17 20:54 EDT    2.36   2.57 -999 -999 -999 -99.9 -99.9 1013.1 -9.9 -9.999 -99.9 -99.99 -9.99
2019/07/17 21:00 EDT    2.41   2.60 -999 -999 -999 -99.9 -99.9 1013.3 -9.9 -9.999 -99.9 -99.99 -9.99
2019/07/17 21:06 EDT    2.46   2.65 -999 -999 -999 -99.9 -99.9 1013.2 -9.9 -9.999 -99.9 -99.99 -9.99
2019/07/17 21:12 EDT    2.50   2.68 -999 -999 -999 -99.9 -99.9 1013.2 -9.9 -9.999 -99.9 -99.99 -9.99
2019/07/17 21:18 EDT    2.55   2.73 -999 -999 -999 -99.9 -99.9 1013.3 -9.9 -9.999 -99.9 -99.99 -9.99
2019/07/17 21:24 EDT    2.59   2.74 -999 -999 -999 -99.9  85.3 1013.3 15.8  1.008 -99.9 -99.99 -9.99
2019/07/17 21:30 EDT    2.62   2.80 -999 -999 -999 -99.9  85.5 1013.2 15.7  1.008 -99.9 -99.99 -9.99
2019/07/17 21:36 EDT    2.66   2.83 -999 -999 -999 -99.9 -99.9 -999.9 -9.9 -9.999 -99.9 -99.99 -9.99
2019/07/17 21:42 EDT    2.69   2.86 -999 -999 -999 -99.9  85.5 1013.2 15.7  1.008 -99.9 -99.99 -9.99
2019/07/17 21:48 EDT    2.72   2.90 -999 -999 -999 -99.9  85.5 1013.3 15.7  1.008 -99.9 -99.99 -9.99
2019/07/17 21:54 EDT    2.74   2.94 -999 -999 -999 -99.9  85.3 1013.6 15.7  1.008 -99.9 -99.99 -9.99
2019/07/17 22:00 EDT    2.77   2.98 -999 -999 -999 -99.9  85.3 1013.6 15.7  1.008 -99.9 -99.99 -9.99
2019/07/17 22:06 EDT    2.79   3.02 -999 -999 -999 -99.9  85.3 1013.7 15.7  1.008 -99.9 -99.99 -9.99
2019/07/17 22:12 EDT    2.80   3.03 -999 -999 -999 -99.9  85.3 1013.7 15.7  1.008 -99.9 -99.99 -9.99
2019/07/17 22:18 EDT    2.82   3.04 -999 -999 -999 -99.9  85.3 1013.8 15.7  1.008 -99.9 -99.99 -9.99
2019/07/17 22:24 EDT    2.83   3.04 -999 -999 -999 -99.9 -99.9 1014.0 -9.9 -9.999 -99.9 -99.99 -9.99
2019/07/17 22:30 EDT    2.83   3.05 -999 -999 -999 -99.9  85.3 1013.9 15.6  1.008 -99.9 -99.99 -9.99
2019/07/17 22:36 EDT    2.84   3.05 -999 -999 -999 -99.9  85.3 1013.9 15.6  1.008 -99.9 -99.99 -9.99
2019/07/17 22:42 EDT    2.84   3.05 -999 -999 -999 -99.9  85.3 1013.8 15.6  1.008 -99.9 -99.99 -9.99
2019/07/17 22:48 EDT    2.83   3.05 -999 -999 -999 -99.9  85.3 1013.9 15.6  1.008 -99.9 -99.99 -9.99
2019/07/17 22:54 EDT    2.83   3.02 -999 -999 -999 -99.9  85.3 1013.7 15.6  1.008 -99.9 -99.99 -9.99
2019/07/17 23:00 EDT    2.82   2.95 -999 -999 -999 -99.9  85.5 1013.6 15.6  1.008 -99.9 -99.99 -9.99
2019/07/17 23:06 EDT    2.81   2.92 -999 -999 -999 -99.9  85.3 1013.7 15.6  1.008 -99.9 -99.99 -9.99
2019/07/17 23:12 EDT    2.79   2.92 -999 -999 -999 -99.9  85.3 1013.9 15.6  1.008 -99.9 -99.99 -9.99
2019/07/17 23:18 EDT    2.77   2.92 -999 -999 -999 -99.9  85.3 1013.7 15.6  1.008 -99.9 -99.99 -9.99
2019/07/17 23:24 EDT    2.75   2.90 -999 -999 -999 -99.9  85.3 1013.6 15.6  1.008 -99.9 -99.99 -9.99
2019/07/17 23:30 EDT    2.72   2.90 -999 -999 -999 -99.9  85.3 1013.8 15.6  1.008 -99.9 -99.99 -9.99
2019/07/17 23:36 EDT    2.70   2.89 -999 -999 -999 -99.9  85.3 1013.9 15.6  1.008 -99.9 -99.99 -9.99
2019/07/17 23:42 EDT    2.67   2.84 -999 -999 -999 -99.9  85.1 1014.0 15.7  1.008 -99.9 -99.99 -9.99
2019/07/17 23:48 EDT    2.63   2.77 -999 -999 -999 -99.9  84.9 1014.3 15.8  1.008 -99.9 -99.99 -9.99
2019/07/17 23:54 EDT    2.60   2.72 -999 -999 -999 -99.9  85.1 1014.3 15.7  1.008 -99.9 -99.99 -9.99
2019/07/18 00:00 EDT    2.56   2.72 -999 -999 -999 -99.9  85.3 1014.4 15.7  1.008 -99.9 -99.99 -9.99
2019/07/18 00:06 EDT    2.51   2.71 -999 -999 -999 -99.9  85.3 1014.5 15.7  1.008 -99.9 -99.99 -9.99
2019/07/18 00:12 EDT    2.47   2.70 -999 -999 -999 -99.9  85.1 1014.5 15.7  1.008 -99.9 -99.99 -9.99
2019/07/18 00:18 EDT    2.42   2.68 -999 -999 -999 -99.9 -99.9 1014.5 -9.9 -9.999 -99.9 -99.99 -9.99
2019/07/18 00:24 EDT    2.37   2.63 -999 -999 -999 -99.9  85.1 1014.6 15.6  1.008 -99.9 -99.99 -9.99
2019/07/18 00:30 EDT    2.32   2.62 -999 -999 -999 -99.9  85.1 1014.6 15.7  1.008 -99.9 -99.99 -9.99
2019/07/18 00:36 EDT    2.27   2.62 -999 -999 -999 -99.9  85.1 1014.6 15.7  1.008 -99.9 -99.99 -9.99
2019/07/18 00:42 EDT    2.21   2.60 -999 -999 -999 -99.9  85.1 1014.6 15.6  1.008 -99.9 -99.99 -9.99
2019/07/18 00:48 EDT    2.15   2.53 -999 -999 -999 -99.9  85.1 1014.6 15.6  1.008 -99.9 -99.99 -9.99
2019/07/18 00:54 EDT    2.09   2.46 -999 -999 -999 -99.9 -99.9 1014.5 -9.9 -9.999 -99.9 -99.99 -9.99
2019/07/18 01:00 EDT    2.03   2.40 -999 -999 -999 -99.9 -99.9 1014.5 -9.9 -9.999 -99.9 -99.99 -9.99
2019/07/18 01:06 EDT    1.97   2.33 -999 -999 -999 -99.9 -99.9 1014.5 -9.9 -9.999 -99.9 -99.99 -9.99
2019/07/18 01:12 EDT    1.91   2.24 -999 -999 -999 -99.9 -99.9 1014.4 -9.9 -9.999 -99.9 -99.99 -9.99
2019/07/18 01:18 EDT    1.84   2.15 -999 -999 -999 -99.9 -99.9 1014.4 -9.9 -9.999 -99.9 -99.99 -9.99
2019/07/18 01:24 EDT    1.78   2.07 -999 -999 -999 -99.9 -99.9 1014.3 -9.9 -9.999 -99.9 -99.99 -9.99
2019/07/18 01:30 EDT    1.71   1.99 -999 -999 -999 -99.9 -99.9 1014.2 -9.9 -9.999 -99.9 -99.99 -9.99
2019/07/18 01:36 EDT    1.64   1.91 -999 -999 -999 -99.9 -99.9 1014.2 -9.9 -9.999 -99.9 -99.99 -9.99
2019/07/18 01:42 EDT    1.57   1.85 -999 -999 -999 -99.9 -99.9 1014.3 -9.9 -9.999 -99.9 -99.99 -9.99
2019/07/18 01:48 EDT    1.50   1.79 -999 -999 -999 -99.9 -99.9 1014.3 -9.9 -9.999 -99.9 -99.99 -9.99
2019/07/18 01:54 EDT    1.44   1.74 -999 -999 -999 -99.9 -99.9 1014.4 -9.9 -9.999 -99.9 -99.99 -9.99
2019/07/18 02:00 EDT    1.37   1.69 -999 -999 -999 -99.9 -99.9 1014.6 -9.9 -9.999 -99.9 -99.99 -9.99
2019/07/18 02:06 EDT    1.30   1.63 -999 -999 -999 -99.9 -99.9 1014.7 -9.9 -9.999 -99.9 -99.99 -9.99
2019/07/18 02:12 EDT    1.23   1.63 -999 -999 -999 -99.9 -99.9 1014.3 -9.9 -9.999 -99.9 -99.99 -9.99
2019/07/18 02:18 EDT    1.16   1.49 -999 -999 -999 -99.9 -99.9 1014.5 -9.9 -9.999 -99.9 -99.99 -9.99
2019/07/18 02:24 EDT    1.10   1.45 -999 -999 -999 -99.9 -99.9 1014.5 -9.9 -9.999 -99.9 -99.99 -9.99
2019/07/18 02:30 EDT    1.03   1.37 -999 -999 -999 -99.9 -99.9 1014.3 -9.9 -9.999 -99.9 -99.99 -9.99
2019/07/18 02:36 EDT    0.97   1.31 -999 -999 -999 -99.9 -99.9 1014.3 -9.9 -9.999 -99.9 -99.99 -9.99
2019/07/18 02:42 EDT    0.90   1.17 -999 -999 -999 -99.9 -99.9 1014.1 -9.9 -9.999 -99.9 -99.99 -9.99
2019/07/18 02:48 EDT    0.84   1.12 -999 -999 -999 -99.9 -99.9 1014.1 -9.9 -9.999 -99.9 -99.99 -9.99
2019/07/18 02:54 EDT    0.78   1.01 -999 -999 -999 -99.9 -99.9 1013.9 -9.9 -9.999 -99.9 -99.99 -9.99
2019/07/18 03:00 EDT    0.72   0.94 -999 -999 -999 -99.9 -99.9 1013.7 -9.9 -9.999 -99.9 -99.99 -9.99
2019/07/18 03:06 EDT    0.67   0.85 -999 -999 -999 -99.9 -99.9 1013.4 -9.9 -9.999 -99.9 -99.99 -9.99
2019/07/18 03:12 EDT    0.61   0.82 -999 -999 -999 -99.9 -99.9 1013.5 -9.9 -9.999 -99.9 -99.99 -9.99
2019/07/18 03:18 EDT    0.56   0.74 -999 -999 -999 -99.9 -99.9 1013.5 -9.9 -9.999 -99.9 -99.99 -9.99
2019/07/18 03:24 EDT    0.51   0.70 -999 -999 -999 -99.9 -99.9 1013.4 -9.9 -9.999 -99.9 -99.99 -9.99
2019/07/18 03:30 EDT    0.46   0.66 -999 -999 -999 -99.9 -99.9 1013.3 -9.9 -9.999 -99.9 -99.99 -9.99
2019/07/18 03:36 EDT    0.41   0.63 -999 -999 -999 -99.9 -99.9 1013.3 -9.9 -9.999 -99.9 -99.99 -9.99
2019/07/18 03:42 EDT    0.37   0.57 -999 -999 -999 -99.9 -99.9 1013.3 -9.9 -9.999 -99.9 -99.99 -9.99
2019/07/18 03:48 EDT    0.33   0.55 -999 -999 -999 -99.9 -99.9 1013.2 -9.9 -9.999 -99.9 -99.99 -9.99
2019/07/18 03:54 EDT    0.29   0.51 -999 -999 -999 -99.9 -99.9 1013.2 -9.9 -9.999 -99.9 -99.99 -9.99
2019/07/18 04:00 EDT    0.26   0.49 -999 -999 -999 -99.9 -99.9 1013.1 -9.9 -9.999 -99.9 -99.99 -9.99
2019/07/18 04:06 EDT    0.23   0.45 -999 -999 -999 -99.9 -99.9 1013.1 -9.9 -9.999 -99.9 -99.99 -9.99
2019/07/18 04:12 EDT    0.20   0.42 -999 -999 -999 -99.9 -99.9 1013.0 -9.9 -9.999 -99.9 -99.99 -9.99
2019/07/18 04:18 EDT    0.18   0.39 -999 -999 -999 -99.9 -99.9 1013.0 -9.9 -9.999 -99.9 -99.99 -9.99
2019/07/18 04:24 EDT    0.16   0.35 -999 -999 -999 -99.9  84.9 1012.9 15.7  1.008 -99.9 -99.99 -9.99
2019/07/18 04:30 EDT    0.14   0.33 -999 -999 -999 -99.9  84.7 1013.0 15.7  1.008 -99.9 -99.99 -9.99
2019/07/18 04:36 EDT    0.12   0.30 -999 -999 -999 -99.9  84.7 1013.0 15.7  1.008 -99.9 -99.99 -9.99
2019/07/18 04:42 EDT    0.11   0.27 -999 -999 -999 -99.9  84.7 1013.0 15.8  1.009 -99.9 -99.99 -9.99
2019/07/18 04:48 EDT    0.10   0.26 -999 -999 -999 -99.9  84.7 1013.1 15.8  1.009 -99.9 -99.99 -9.99
2019/07/18 04:54 EDT    0.10   0.27 -999 -999 -999 -99.9  84.7 1013.1 15.7  1.008 -99.9 -99.99 -9.99
2019/07/18 05:00 EDT    0.10   0.28 -999 -999 -999 -99.9  84.7 1013.0 15.8  1.009 -99.9 -99.99 -9.99
2019/07/18 05:06 EDT    0.10   0.29 -999 -999 -999 -99.9  84.7 1013.0 15.8  1.009 -99.9 -99.99 -9.99
2019/07/18 05:12 EDT    0.11   0.32 -999 -999 -999 -99.9  84.7 1013.0 15.7  1.008 -99.9 -99.99 -9.99
2019/07/18 05:18 EDT    0.12   0.36 -999 -999 -999 -99.9  84.7 1013.0 15.7  1.008 -99.9 -99.99 -9.99
2019/07/18 05:24 EDT    0.13   0.38 -999 -999 -999 -99.9  84.6 1013.0 15.8  1.009 -99.9 -99.99 -9.99
2019/07/18 05:30 EDT    0.14   0.44 -999 -999 -999 -99.9  84.6 1013.1 15.8  1.009 -99.9 -99.99 -9.99
2019/07/18 05:36 EDT    0.16   0.42 -999 -999 -999 -99.9  84.6 1013.0 15.8  1.009 -99.9 -99.99 -9.99
2019/07/18 05:42 EDT    0.19   0.47 -999 -999 -999 -99.9  84.4 1013.1 15.9  1.009 -99.9 -99.99 -9.99
2019/07/18 05:48 EDT    0.21   0.45 -999 -999 -999 -99.9  84.0 1013.1 16.0  1.009 -99.9 -99.99 -9.99
2019/07/18 05:54 EDT    0.24   0.48 -999 -999 -999 -99.9  84.0 1013.1 16.0  1.009 -99.9 -99.99 -9.99
2019/07/18 06:00 EDT    0.27   0.47 -999 -999 -999 -99.9  84.0 1013.1 16.0  1.009 -99.9 -99.99 -9.99
2019/07/18 06:06 EDT    0.30   0.49 -999 -999 -999 -99.9  83.7 1013.2 16.1  1.009 -99.9 -99.99 -9.99
2019/07/18 06:12 EDT    0.34   0.50 -999 -999 -999 -99.9  83.5 1013.2 16.2  1.009 -99.9 -99.99 -9.99
2019/07/18 06:18 EDT    0.38   0.53 -999 -999 -999 -99.9  83.7 1013.3 16.2  1.009 -99.9 -99.99 -9.99
2019/07/18 06:24 EDT    0.42   0.53 -999 -999 -999 -99.9  83.5 1013.3 16.2  1.009 -99.9 -99.99 -9.99
2019/07/18 06:30 EDT    0.47   0.57 -999 -999 -999 -99.9  83.5 1013.4 16.3  1.009 -99.9 -99.99 -9.99
2019/07/18 06:36 EDT    0.51   0.61 -999 -999 -999 -99.9  83.7 1013.4 16.2  1.009 -99.9 -99.99 -9.99
2019/07/18 06:42 EDT    0.56   0.66 -999 -999 -999 -99.9  84.0 1013.5 16.1  1.009 -99.9 -99.99 -9.99
2019/07/18 06:48 EDT    0.61   0.70 -999 -999 -999 -99.9  84.0 1013.6 16.1  1.009 -99.9 -99.99 -9.99
2019/07/18 06:54 EDT    0.66   0.76 -999 -999 -999 -99.9  84.0 1013.6 16.0  1.009 -99.9 -99.99 -9.99
2019/07/18 07:00 EDT    0.71   0.81 -999 -999 -999 -99.9  84.0 1013.7 16.0  1.009 -99.9 -99.99 -9.99
2019/07/18 07:06 EDT    0.77   0.87 -999 -999 -999 -99.9  84.0 1013.7 16.0  1.009 -99.9 -99.99 -9.99
2019/07/18 07:12 EDT    0.83   0.93 -999 -999 -999 -99.9  83.8 1013.8 16.1  1.009 -99.9 -99.99 -9.99
2019/07/18 07:18 EDT    0.88   0.97 -999 -999 -999 -99.9  83.8 1013.8 16.1  1.009 -99.9 -99.99 -9.99
2019/07/18 07:24 EDT    0.94   1.03 -999 -999 -999 -99.9  83.8 1013.9 16.1  1.009 -99.9 -99.99 -9.99
2019/07/18 07:30 EDT    1.00   1.08 -999 -999 -999 -99.9  84.0 1013.9 16.0  1.009 -99.9 -99.99 -9.99
2019/07/18 07:36 EDT    1.06   1.14 -999 -999 -999 -99.9  84.0 1014.0 16.0  1.009 -99.9 -99.99 -9.99
2019/07/18 07:42 EDT    1.12   1.21 -999 -999 -999 -99.9  84.0 1014.0 16.0  1.009 -99.9 -99.99 -9.99
2019/07/18 07:48 EDT    1.18   1.27 -999 -999 -999 -99.9  84.0 1014.1 16.0  1.009 -99.9 -99.99 -9.99
2019/07/18 07:54 EDT    1.24   1.34 -999 -999 -999 -99.9 -99.9 1014.0 -9.9 -9.999 -99.9 -99.99 -9.99
2019/07/18 08:00 EDT    1.30   1.39 -999 -999 -999 -99.9 -99.9 1014.0 -9.9 -9.999 -99.9 -99.99 -9.99
2019/07/18 08:06 EDT    1.36   1.45 -999 -999 -999 -99.9 -99.9 1014.1 -9.9 -9.999 -99.9 -99.99 -9.99
2019/07/18 08:12 EDT    1.42   1.48 -999 -999 -999 -99.9  84.0 1014.0 15.8  1.009 -99.9 -99.99 -9.99
2019/07/18 08:18 EDT    1.47   1.53 -999 -999 -999 -99.9  84.0 1014.0 15.9  1.009 -99.9 -99.99 -9.99
2019/07/18 08:24 EDT    1.53   1.59 -999 -999 -999 -99.9  83.8 1014.0 16.0  1.009 -99.9 -99.99 -9.99
2019/07/18 08:30 EDT    1.59   1.64 -999 -999 -999 -99.9  84.0 1014.0 15.9  1.009 -99.9 -99.99 -9.99
2019/07/18 08:36 EDT    1.64   1.69 -999 -999 -999 -99.9  84.0 1014.0 15.8  1.009 -99.9 -99.99 -9.99
2019/07/18 08:42 EDT    1.70   1.74 -999 -999 -999 -99.9  84.0 1014.0 15.8  1.009 -99.9 -99.99 -9.99
2019/07/18 08:48 EDT    1.75   1.79 -999 -999 -999 -99.9  83.8 1014.0 15.9  1.009 -99.9 -99.99 -9.99
2019/07/18 08:54 EDT    1.80   1.85 -999 -999 -999 -99.9  84.0 1014.1 15.8  1.009 -99.9 -99.99 -9.99
2019/07/18 09:00 EDT    1.85   1.91 -999 -999 -999 -99.9 -99.9 1014.0 -9.9 -9.999 -99.9 -99.99 -9.99
2019/07/18 09:06 EDT    1.90   1.96 -999 -999 -999 -99.9 -99.9 1014.1 -9.9 -9.999 -99.9 -99.99 -9.99
2019/07/18 09:12 EDT    1.95   2.02 -999 -999 -999 -99.9 -99.9 1014.1 -9.9 -9.999 -99.9 -99.99 -9.99
2019/07/18 09:18 EDT    1.99   2.07 -999 -999 -999 -99.9 -99.9 1014.1 -9.9 -9.999 -99.9 -99.99 -9.99
2019/07/18 09:24 EDT    2.03   2.12 -999 -999 -999 -99.9 -99.9 1014.0 -9.9 -9.999 -99.9 -99.99 -9.99
2019/07/18 09:30 EDT    2.07   2.16 -999 -999 -999 -99.9 -99.9 1013.9 -9.9 -9.999 -99.9 -99.99 -9.99
2019/07/18 09:36 EDT    2.11 -99.99 -999 -999 -999 -99.9 -99.9 -999.9 -9.9 -9.999 -99.9 -99.99 -9.99
2019/07/18 09:42 EDT    2.15 -99.99 -999 -999 -999 -99.9 -99.9 -999.9 -9.9 -9.999 -99.9 -99.99 -9.99
2019/07/18 09:48 EDT    2.18 -99.99 -999 -999 -999 -99.9 -99.9 -999.9 -9.9 -9.999 -99.9 -99.99 -9.99
2019/07/18 09:54 EDT    2.21 -99.99 -999 -999 -999 -99.9 -99.9 -999.9 -9.9 -9.999 -99.9 -99.99 -9.99
2019/07/18 10:00 EDT    2.24 -99.99 -999 -999 -999 -99.9 -99.9 -999.9 -9.9 -9.999 -99.9 -99.99 -9.99
2019/07/18 10:06 EDT    2.26 -99.99 -999 -999 -999 -99.9 -99.9 -999.9 -9.9 -9.999 -99.9 -99.99 -9.99
2019/07/18 10:12 EDT    2.29 -99.99 -999 -999 -999 -99.9 -99.9 -999.9 -9.9 -9.999 -99.9 -99.99 -9.99
2019/07/18 10:18 EDT    2.31 -99.99 -999 -999 -999 -99.9 -99.9 -999.9 -9.9 -9.999 -99.9 -99.99 -9.99
2019/07/18 10:24 EDT    2.32 -99.99 -999 -999 -999 -99.9 -99.9 -999.9 -9.9 -9.999 -99.9 -99.99 -9.99
2019/07/18 10:30 EDT    2.34   2.51 -999 -999 -999 -99.9  84.0 1013.8 15.9  1.009 -99.9 -99.99 -9.99
2019/07/18 10:36 EDT    2.35   2.54 -999 -999 -999 -99.9  83.8 1013.8 15.9  1.009 -99.9 -99.99 -9.99
2019/07/18 10:42 EDT    2.36   2.56 -999 -999 -999 -99.9  83.8 1013.8 15.8  1.009 -99.9 -99.99 -9.99
2019/07/18 10:48 EDT    2.36   2.57 -999 -999 -999 -99.9  83.8 1013.8 15.8  1.009 -99.9 -99.99 -9.99
2019/07/18 10:54 EDT    2.37   2.57 -999 -999 -999 -99.9  83.8 1013.7 15.8  1.009 -99.9 -99.99 -9.99
2019/07/18 11:00 EDT    2.36   2.57 -999 -999 -999 -99.9  83.8 1013.7 15.7  1.009 -99.9 -99.99 -9.99
2019/07/18 11:06 EDT    2.36   2.59 -999 -999 -999 -99.9  83.8 1013.8 15.7  1.009 -99.9 -99.99 -9.99
2019/07/18 11:12 EDT    2.36   2.56 -999 -999 -999 -99.9  83.8 1013.8 15.8  1.009 -99.9 -99.99 -9.99
2019/07/18 11:18 EDT    2.35   2.60 -999 -999 -999 -99.9  83.8 1013.8 15.7  1.009 -99.9 -99.99 -9.99
2019/07/18 11:24 EDT    2.33   2.60 -999 -999 -999 -99.9  83.8 1013.6 15.7  1.009 -99.9 -99.99 -9.99
2019/07/18 11:30 EDT    2.32   2.60 -999 -999 -999 -99.9  83.8 1013.6 15.7  1.009 -99.9 -99.99 -9.99
2019/07/18 11:36 EDT    2.30   2.59 -999 -999 -999 -99.9  83.8 1013.5 15.8  1.009 -99.9 -99.99 -9.99
2019/07/18 11:42 EDT    2.28   2.58 -999 -999 -999 -99.9  84.0 1013.4 15.8  1.009 -99.9 -99.99 -9.99
2019/07/18 11:48 EDT    2.26   2.56 -999 -999 -999 -99.9  84.2 1013.3 15.7  1.009 -99.9 -99.99 -9.99
2019/07/18 11:54 EDT    2.23   2.53 -999 -999 -999 -99.9  84.0 1013.3 15.7  1.009 -99.9 -99.99 -9.99
2019/07/18 12:00 EDT    2.20   2.54 -999 -999 -999 -99.9  84.0 1013.3 15.7  1.009 -99.9 -99.99 -9.99
2019/07/18 12:06 EDT    2.17   2.47 -999 -999 -999 -99.9  83.8 1013.3 15.7  1.009 -99.9 -99.99 -9.99
2019/07/18 12:12 EDT    2.14   2.44 -999 -999 -999 -99.9 -99.9 -999.9 -9.9 -9.999 -99.9 -99.99 -9.99
2019/07/18 12:18 EDT    2.11   2.41 -999 -999 -999 -99.9  84.0 1013.2 15.7  1.009 -99.9 -99.99 -9.99
2019/07/18 12:24 EDT    2.07   2.38 -999 -999 -999 -99.9  83.8 1013.2 15.7  1.009 -99.9 -99.99 -9.99
2019/07/18 12:30 EDT    2.03   2.33 -999 -999 -999 -99.9  84.0 1013.2 15.7  1.009 -99.9 -99.99 -9.99
2019/07/18 12:36 EDT    1.99   2.30 -999 -999 -999 -99.9  84.0 1013.1 15.7  1.009 -99.9 -99.99 -9.99
2019/07/18 12:42 EDT    1.94   2.23 -999 -999 -999 -99.9  84.0 1013.0 15.7  1.009 -99.9 -99.99 -9.99
2019/07/18 12:48 EDT    1.90   2.19 -999 -999 -999 -99.9  83.8 1013.0 15.7  1.009 -99.9 -99.99 -9.99
2019/07/18 12:54 EDT    1.85   2.12 -999 -999 -999 -99.9  83.8 1012.9 15.7  1.009 -99.9 -99.99 -9.99
2019/07/18 13:00 EDT    1.80   2.08 -999 -999 -999 -99.9  83.8 1012.8 15.6  1.009 -99.9 -99.99 -9.99
2019/07/18 13:06 EDT    1.75   2.04 -999 -999 -999 -99.9  83.8 1012.7 15.7  1.009 -99.9 -99.99 -9.99
2019/07/18 13:12 EDT    1.70   1.99 -999 -999 -999 -99.9  83.8 1012.7 15.7  1.009 -99.9 -99.99 -9.99
2019/07/18 13:18 EDT    1.65   1.93 -999 -999 -999 -99.9  84.0 1012.7 15.7  1.009 -99.9 -99.99 -9.99
2019/07/18 13:24 EDT    1.59   1.88 -999 -999 -999 -99.9  84.0 1012.7 15.7  1.009 -99.9 -99.99 -9.99
2019/07/18 13:30 EDT    1.54   1.82 -999 -999 -999 -99.9  84.0 1012.7 15.7  1.009 -99.9 -99.99 -9.99
2019/07/18 13:36 EDT    1.48   1.77 -999 -999 -999 -99.9  84.2 1012.6 15.7  1.009 -99.9 -99.99 -9.99
2019/07/18 13:42 EDT    1.43   1.71 -999 -999 -999 -99.9  84.2 1012.6 15.7  1.009 -99.9 -99.99 -9.99
2019/07/18 13:48 EDT    1.37   1.67 -999 -999 -999 -99.9  84.2 1012.6 15.7  1.009 -99.9 -99.99 -9.99
2019/07/18 13:54 EDT    1.31   1.62 -999 -999 -999 -99.9  84.2 1012.6 15.7  1.009 -99.9 -99.99 -9.99
2019/07/18 14:00 EDT    1.26   1.57 -999 -999 -999 -99.9  84.2 1012.6 15.7  1.009 -99.9 -99.99 -9.99
2019/07/18 14:06 EDT    1.20   1.52 -999 -999 -999 -99.9  84.2 1012.6 15.7  1.009 -99.9 -99.99 -9.99
2019/07/18 14:12 EDT    1.14   1.46 -999 -999 -999 -99.9  84.2 1012.6 15.7  1.009 -99.9 -99.99 -9.99
2019/07/18 14:18 EDT    1.09   1.40 -999 -999 -999 -99.9  84.2 1012.6 15.7  1.009 -99.9 -99.99 -9.99
2019/07/18 14:24 EDT    1.03   1.35 -999 -999 -999 -99.9 -99.9 1012.5 -9.9 -9.999 -99.9 -99.99 -9.99
2019/07/18 14:30 EDT    0.97   1.29 -999 -999 -999 -99.9  84.2 1012.5 15.7  1.009 -99.9 -99.99 -9.99
2019/07/18 14:36 EDT    0.92   1.23 -999 -999 -999 -99.9  84.2 1012.5 15.7  1.009 -99.9 -99.99 -9.99
2019/07/18 14:42 EDT    0.86   1.18 -999 -999 -999 -99.9  84.2 1012.5 15.7  1.009 -99.9 -99.99 -9.99
2019/07/18 14:48 EDT    0.81   1.13 -999 -999 -999 -99.9  84.4 1012.4 15.7  1.008 -99.9 -99.99 -9.99
2019/07/18 14:54 EDT    0.76   1.10 -999 -999 -999 -99.9  84.4 1012.3 15.6  1.008 -99.9 -99.99 -9.99
2019/07/18 15:00 EDT    0.71   1.04 -999 -999 -999 -99.9  84.4 1012.3 15.6  1.008 -99.9 -99.99 -9.99
2019/07/18 15:06 EDT    0.66   0.99 -999 -999 -999 -99.9  84.2 1012.3 15.7  1.009 -99.9 -99.99 -9.99
2019/07/18 15:12 EDT    0.61   0.94 -999 -999 -999 -99.9  84.4 1012.3 15.7  1.008 -99.9 -99.99 -9.99
2019/07/18 15:18 EDT    0.57   0.88 -999 -999 -999 -99.9  84.2 1012.3 15.7  1.009 -99.9 -99.99 -9.99
2019/07/18 15:24 EDT    0.52   0.84 -999 -999 -999 -99.9  84.2 1012.3 15.7  1.009 -99.9 -99.99 -9.99
2019/07/18 15:30 EDT    0.48   0.81 -999 -999 -999 -99.9  84.2 1012.2 15.7  1.009 -99.9 -99.99 -9.99
2019/07/18 15:36 EDT    0.44   0.77 -999 -999 -999 -99.9  84.2 1012.2 15.7  1.009 -99.9 -99.99 -9.99
2019/07/18 15:42 EDT    0.40   0.73 -999 -999 -999 -99.9 -99.9 -999.9 -9.9 -9.999 -99.9 -99.99 -9.99
2019/07/18 15:48 EDT    0.37   0.70 -999 -999 -999 -99.9  84.2 1012.1 15.7  1.009 -99.9 -99.99 -9.99
2019/07/18 15:54 EDT    0.33   0.68 -999 -999 -999 -99.9  84.2 1012.0 15.7  1.009 -99.9 -99.99 -9.99
2019/07/18 16:00 EDT    0.30   0.66 -999 -999 -999 -99.9  84.4 1011.9 15.7  1.009 -99.9 -99.99 -9.99
2019/07/18 16:06 EDT    0.27   0.64 -999 -999 -999 -99.9  84.4 1011.9 15.7  1.008 -99.9 -99.99 -9.99
2019/07/18 16:12 EDT    0.25   0.62 -999 -999 -999 -99.9  84.7 1011.8 15.6  1.008 -99.9 -99.99 -9.99
2019/07/18 16:18 EDT    0.23   0.61 -999 -999 -999 -99.9  84.9 1011.8 15.6  1.008 -99.9 -99.99 -9.99
2019/07/18 16:24 EDT    0.21   0.60 -999 -999 -999 -99.9  84.7 1011.7 15.7  1.008 -99.9 -99.99 -9.99
2019/07/18 16:30 EDT    0.19   0.55 -999 -999 -999 -99.9  84.7 1011.6 15.6  1.008 -99.9 -99.99 -9.99
2019/07/18 16:36 EDT    0.18   0.57 -999 -999 -999 -99.9  84.7 1011.5 15.6  1.008 -99.9 -99.99 -9.99
2019/07/18 16:42 EDT    0.17   0.48 -999 -999 -999 -99.9  84.7 1011.5 15.7  1.008 -99.9 -99.99 -9.99
2019/07/18 16:48 EDT    0.16   0.54 -999 -999 -999 -99.9 -99.9 -999.9 -9.9 -9.999 -99.9 -99.99 -9.99
2019/07/18 16:54 EDT    0.16   0.51 -999 -999 -999 -99.9  84.4 1011.4 15.7  1.009 -99.9 -99.99 -9.99
2019/07/18 17:00 EDT    0.16   0.52 -999 -999 -999 -99.9  84.6 1011.4 15.7  1.008 -99.9 -99.99 -9.99
2019/07/18 17:06 EDT    0.16   0.49 -999 -999 -999 -99.9  84.4 1011.4 15.7  1.008 -99.9 -99.99 -9.99
2019/07/18 17:12 EDT    0.16   0.49 -999 -999 -999 -99.9  84.4 1011.3 15.7  1.008 -99.9 -99.99 -9.99
2019/07/18 17:18 EDT    0.17   0.49 -999 -999 -999 -99.9  84.4 1011.4 15.7  1.009 -99.9 -99.99 -9.99
2019/07/18 17:24 EDT    0.19   0.49 -999 -999 -999 -99.9  84.4 1011.4 15.7  1.008 -99.9 -99.99 -9.99
2019/07/18 17:30 EDT    0.20   0.50 -999 -999 -999 -99.9  84.4 1011.3 15.6  1.008 -99.9 -99.99 -9.99
2019/07/18 17:36 EDT    0.22   0.52 -999 -999 -999 -99.9  84.4 1011.3 15.6  1.008 -99.9 -99.99 -9.99
2019/07/18 17:42 EDT    0.24   0.53 -999 -999 -999 -99.9  84.4 1011.3 15.7  1.008 -99.9 -99.99 -9.99
2019/07/18 17:48 EDT    0.27   0.55 -999 -999 -999 -99.9  84.4 1011.4 15.7  1.008 -99.9 -99.99 -9.99
2019/07/18 17:54 EDT    0.29   0.55 -999 -999 -999 -99.9  84.2 1011.4 15.7  1.009 -99.9 -99.99 -9.99
2019/07/18 18:00 EDT    0.32   0.59 -999 -999 -999 -99.9  84.4 1011.4 15.6  1.008 -99.9 -99.99 -9.99
2019/07/18 18:06 EDT    0.36   0.62 -999 -999 -999 -99.9  84.4 1011.3 15.6  1.008 -99.9 -99.99 -9.99
2019/07/18 18:12 EDT    0.39   0.66 -999 -999 -999 -99.9  84.4 1011.2 15.6  1.008 -99.9 -99.99 -9.99
2019/07/18 18:18 EDT    0.43   0.70 -999 -999 -999 -99.9  84.4 1011.2 15.6  1.008 -99.9 -99.99 -9.99
2019/07/18 18:24 EDT    0.47   0.75 -999 -999 -999 -99.9  84.4 1011.2 15.6  1.008 -99.9 -99.99 -9.99
2019/07/18 18:30 EDT    0.52   0.80 -999 -999 -999 -99.9  84.4 1011.3 15.6  1.008 -99.9 -99.99 -9.99
2019/07/18 18:36 EDT    0.56   0.86 -999 -999 -999 -99.9  84.4 1011.5 15.6  1.008 -99.9 -99.99 -9.99
2019/07/18 18:42 EDT    0.61   0.90 -999 -999 -999 -99.9  84.4 1011.5 15.6  1.008 -99.9 -99.99 -9.99
2019/07/18 18:48 EDT    0.66   0.95 -999 -999 -999 -99.9  84.6 1011.5 15.6  1.008 -99.9 -99.99 -9.99
2019/07/18 18:54 EDT    0.71   1.00 -999 -999 -999 -99.9  84.6 1011.5 15.6  1.008 -99.9 -99.99 -9.99
2019/07/18 19:00 EDT    0.77   1.05 -999 -999 -999 -99.9  84.4 1011.4 15.7  1.008 -99.9 -99.99 -9.99
2019/07/18 19:06 EDT    0.82   1.12 -999 -999 -999 -99.9 -99.9 1011.4 -9.9 -9.999 -99.9 -99.99 -9.99
2019/07/18 19:12 EDT    0.88   1.17 -999 -999 -999 -99.9 -99.9 1011.5 -9.9 -9.999 -99.9 -99.99 -9.99
2019/07/18 19:18 EDT    0.94   1.23 -999 -999 -999 -99.9 -99.9 1011.5 -9.9 -9.999 -99.9 -99.99 -9.99
2019/07/18 19:24 EDT    1.00   1.29 -999 -999 -999 -99.9 -99.9 1011.5 -9.9 -9.999 -99.9 -99.99 -9.99
2019/07/18 19:30 EDT    1.06   1.34 -999 -999 -999 -99.9 -99.9 1011.6 -9.9 -9.999 -99.9 -99.99 -9.99
2019/07/18 19:36 EDT    1.13   1.40 -999 -999 -999 -99.9  85.1 1011.7 15.6  1.008 -99.9 -99.99 -9.99
2019/07/18 19:42 EDT    1.19   1.45 -999 -999 -999 -99.9  85.1 1011.7 15.6  1.008 -99.9 -99.99 -9.99
2019/07/18 19:48 EDT    1.25   1.53 -999 -999 -999 -99.9  85.1 1011.8 15.6  1.008 -99.9 -99.99 -9.99
2019/07/18 19:54 EDT    1.32   1.59 -999 -999 -999 -99.9  84.9 1012.0 15.6  1.008 -99.9 -99.99 -9.99
2019/07/18 20:00 EDT    1.38   1.65 -999 -999 -999 -99.9  84.9 1012.0 15.6  1.008 -99.9 -99.99 -9.99
2019/07/18 20:06 EDT    1.45   1.72 -999 -999 -999 -99.9  84.7 1012.0 15.6  1.008 -99.9 -99.99 -9.99
2019/07/18 20:12 EDT    1.51   1.77 -999 -999 -999 -99.9  84.7 1011.9 15.6  1.008 -99.9 -99.99 -9.99
2019/07/18 20:18 EDT    1.58   1.85 -999 -999 -999 -99.9  84.6 1011.9 15.6  1.008 -99.9 -99.99 -9.99
2019/07/18 20:24 EDT    1.64   1.92 -999 -999 -999 -99.9  84.6 1011.7 15.6  1.008 -99.9 -99.99 -9.99
2019/07/18 20:30 EDT    1.70   1.97 -999 -999 -999 -99.9  84.9 1011.7 15.5  1.008 -99.9 -99.99 -9.99
2019/07/18 20:36 EDT    1.77   2.02 -999 -999 -999 -99.9  84.7 1011.6 15.6  1.008 -99.9 -99.99 -9.99
2019/07/18 20:42 EDT    1.83   2.08 -999 -999 -999 -99.9  84.7 1011.7 15.6  1.008 -99.9 -99.99 -9.99
2019/07/18 20:48 EDT    1.89   2.13 -999 -999 -999 -99.9  84.7 1011.7 15.5  1.008 -99.9 -99.99 -9.99
2019/07/18 20:54 EDT    1.95   2.17 -999 -999 -999 -99.9  84.6 1011.7 15.6  1.008 -99.9 -99.99 -9.99
2019/07/18 21:00 EDT    2.01   2.20 -999 -999 -999 -99.9  84.7 1011.8 15.5  1.008 -99.9 -99.99 -9.99
2019/07/18 21:06 EDT    2.07   2.22 -999 -999 -999 -99.9  84.7 1012.1 15.5  1.008 -99.9 -99.99 -9.99
2019/07/18 21:12 EDT    2.12   2.27 -999 -999 -999 -99.9  84.7 1012.3 15.5  1.008 -99.9 -99.99 -9.99
2019/07/18 21:18 EDT    2.18   2.30 -999 -999 -999 -99.9  84.7 1012.4 15.5  1.008 -99.9 -99.99 -9.99
2019/07/18 21:24 EDT    2.23   2.36 -999 -999 -999 -99.9  84.7 1012.4 15.5  1.008 -99.9 -99.99 -9.99
2019/07/18 21:30 EDT    2.28   2.44 -999 -999 -999 -99.9  84.7 1012.5 15.5  1.008 -99.9 -99.99 -9.99
2019/07/18 21:36 EDT    2.33   2.49 -999 -999 -999 -99.9  84.7 1012.6 15.5  1.008 -99.9 -99.99 -9.99
2019/07/18 21:42 EDT    2.38   2.56 -999 -999 -999 -99.9  84.7 1012.6 15.5  1.008 -99.9 -99.99 -9.99
2019/07/18 21:48 EDT    2.42   2.63 -999 -999 -999 -99.9  84.7 1012.8 15.5  1.008 -99.9 -99.99 -9.99
2019/07/18 21:54 EDT    2.46   2.64 -999 -999 -999 -99.9  84.7 1012.9 15.5  1.008 -99.9 -99.99 -9.99
2019/07/18 22:00 EDT    2.50   2.68 -999 -999 -999 -99.9  84.7 1013.0 15.5  1.008 -99.9 -99.99 -9.99
2019/07/18 22:06 EDT    2.54   2.72 -999 -999 -999 -99.9  84.6 1013.1 15.5  1.008 -99.9 -99.99 -9.99
2019/07/18 22:12 EDT    2.58   2.78 -999 -999 -999 -99.9  84.7 1013.2 15.5  1.008 -99.9 -99.99 -9.99
2019/07/18 22:18 EDT    2.61   2.81 -999 -999 -999 -99.9  84.7 1013.7 15.5  1.008 -99.9 -99.99 -9.99
2019/07/18 22:24 EDT    2.64   2.84 -999 -999 -999 -99.9  84.7 1013.7 15.5  1.008 -99.9 -99.99 -9.99
2019/07/18 22:30 EDT    2.66   2.88 -999 -999 -999 -99.9  84.7 1013.6 15.5  1.008 -99.9 -99.99 -9.99
2019/07/18 22:36 EDT    2.68   2.93 -999 -999 -999 -99.9  84.7 1013.8 15.5  1.008 -99.9 -99.99 -9.99
2019/07/18 22:42 EDT    2.70   2.95 -999 -999 -999 -99.9  84.7 1013.8 15.5  1.008 -99.9 -99.99 -9.99
2019/07/18 22:48 EDT    2.72   2.97 -999 -999 -999 -99.9  84.7 1013.8 15.5  1.008 -99.9 -99.99 -9.99
2019/07/18 22:54 EDT    2.74   3.00 -999 -999 -999 -99.9  84.6 1014.0 15.5  1.008 -99.9 -99.99 -9.99
2019/07/18 23:00 EDT    2.75   3.03 -999 -999 -999 -99.9  84.6 1013.9 15.5  1.008 -99.9 -99.99 -9.99
2019/07/18 23:06 EDT    2.75   3.07 -999 -999 -999 -99.9  84.6 1013.8 15.5  1.008 -99.9 -99.99 -9.99
2019/07/18 23:12 EDT    2.76   3.11 -999 -999 -999 -99.9  84.6 1013.8 15.5  1.008 -99.9 -99.99 -9.99
2019/07/18 23:18 EDT    2.76   3.15 -999 -999 -999 -99.9  84.6 1013.6 15.4  1.008 -99.9 -99.99 -9.99
2019/07/18 23:24 EDT    2.76   3.15 -999 -999 -999 -99.9  84.6 1013.7 15.5  1.008 -99.9 -99.99 -9.99
2019/07/18 23:30 EDT    2.76   3.12 -999 -999 -999 -99.9  84.6 1013.6 15.5  1.008 -99.9 -99.99 -9.99
2019/07/18 23:36 EDT    2.75   3.13 -999 -999 -999 -99.9  84.7 1013.6 15.5  1.008 -99.9 -99.99 -9.99
2019/07/18 23:42 EDT    2.74   3.12 -999 -999 -999 -99.9  84.6 1013.8 15.5  1.008 -99.9 -99.99 -9.99
2019/07/18 23:48 EDT    2.72   3.12 -999 -999 -999 -99.9  84.6 1013.9 15.5  1.008 -99.9 -99.99 -9.99
2019/07/18 23:54 EDT    2.71   3.08 -999 -999 -999 -99.9  84.6 1013.8 15.5  1.008 -99.9 -99.99 -9.99
2019/07/19 00:00 EDT    2.69   3.05 -999 -999 -999 -99.9  84.6 1013.8 15.5  1.008 -99.9 -99.99 -9.99
2019/07/19 00:06 EDT    2.66   3.02 -999 -999 -999 -99.9  84.4 1013.8 15.5  1.008 -99.9 -99.99 -9.99
2019/07/19 00:12 EDT    2.64   2.97 -999 -999 -999 -99.9  83.7 1013.9 15.7  1.009 -99.9 -99.99 -9.99
2019/07/19 00:18 EDT    2.61   2.86 -999 -999 -999 -99.9  83.8 1013.9 15.7  1.009 -99.9 -99.99 -9.99
2019/07/19 00:24 EDT    2.58   2.84 -999 -999 -999 -99.9  84.0 1013.9 15.6  1.009 -99.9 -99.99 -9.99
2019/07/19 00:30 EDT    2.54   2.79 -999 -999 -999 -99.9  83.8 1013.8 15.7  1.009 -99.9 -99.99 -9.99
2019/07/19 00:36 EDT    2.50   2.75 -999 -999 -999 -99.9  84.2 1013.7 15.6  1.008 -99.9 -99.99 -9.99
2019/07/19 00:42 EDT    2.47   2.69 -999 -999 -999 -99.9  84.4 1013.5 15.5  1.008 -99.9 -99.99 -9.99
2019/07/19 00:48 EDT    2.42   2.64 -999 -999 -999 -99.9  84.4 1013.4 15.5  1.008 -99.9 -99.99 -9.99
2019/07/19 00:54 EDT    2.38   2.59 -999 -999 -999 -99.9  84.4 1013.2 15.5  1.008 -99.9 -99.99 -9.99
2019/07/19 01:00 EDT    2.33   2.54 -999 -999 -999 -99.9  84.4 1013.1 15.5  1.008 -99.9 -99.99 -9.99
2019/07/19 01:06 EDT    2.28   2.48 -999 -999 -999 -99.9  84.4 1013.0 15.5  1.008 -99.9 -99.99 -9.99
2019/07/19 01:12 EDT    2.23   2.44 -999 -999 -999 -99.9  84.4 1013.0 15.5  1.008 -99.9 -99.99 -9.99
2019/07/19 01:18 EDT    2.18   2.38 -999 -999 -999 -99.9  84.4 1012.9 15.5  1.008 -99.9 -99.99 -9.99
2019/07/19 01:24 EDT    2.12   2.31 -999 -999 -999 -99.9  84.4 1013.0 15.5  1.008 -99.9 -99.99 -9.99
2019/07/19 01:30 EDT    2.07   2.25 -999 -999 -999 -99.9  84.4 1013.2 15.5  1.008 -99.9 -99.99 -9.99
2019/07/19 01:36 EDT    2.01 -99.99 -999 -999 -999 -99.9 -99.9 -999.9 -9.9 -9.999 -99.9 -99.99 -9.99
2019/07/19 01:42 EDT    1.95 -99.99 -999 -999 -999 -99.9 -99.9 -999.9 -9.9 -9.999 -99.9 -99.99 -9.99
2019/07/19 01:48 EDT    1.89 -99.99 -999 -999 -999 -99.9 -99.9 -999.9 -9.9 -9.999 -99.9 -99.99 -9.99

Revised: 08/08/2018
NOAA / National Ocean Service
Web site owner: Center for Operational Oceanographic Products and Services